<?xml version="1.0" encoding="UTF-8" standalone="no" ?>
<gpx xmlns="http://www.topografix.com/GPX/1/1" xmlns:xsi="http://www.w3.org/2001/XMLSchema-instance" xsi:schemaLocation="http://www.topografix.com/GPX/1/1 http://www.topografix.com/GPX/1/1/gpx.xsd" version="1.1" creator="VisuGPX - https://www.visugpx.com">
  <metadata>
    <name>2022-02-23 13:38:35</name>
  </metadata>
  <wpt lat="47.23418" lon="0.12046">
    <ele>32</ele>
    <name><![CDATA[001]]></name>
  </wpt>
  <wpt lat="47.2353" lon="0.12459">
    <ele>32.1</ele>
    <name><![CDATA[002]]></name>
  </wpt>
  <wpt lat="47.23754" lon="0.13014">
    <ele>34.3</ele>
    <name><![CDATA[003]]></name>
  </wpt>
  <wpt lat="47.23768" lon="0.1303">
    <ele>34.9</ele>
    <name><![CDATA[004]]></name>
  </wpt>
  <wpt lat="47.23778" lon="0.13">
    <ele>36</ele>
    <name><![CDATA[005]]></name>
  </wpt>
  <wpt lat="47.238" lon="0.12984">
    <ele>35.3</ele>
    <name><![CDATA[006]]></name>
  </wpt>
  <wpt lat="47.23834" lon="0.12978">
    <ele>33.4</ele>
    <name><![CDATA[007]]></name>
  </wpt>
  <wpt lat="47.23921" lon="0.12869">
    <ele>31.3</ele>
    <name><![CDATA[008]]></name>
  </wpt>
  <wpt lat="47.24226" lon="0.12885">
    <ele>30.1</ele>
    <name><![CDATA[009]]></name>
  </wpt>
  <wpt lat="47.24286" lon="0.12975">
    <ele>30</ele>
    <name><![CDATA[010]]></name>
  </wpt>
  <wpt lat="47.2419" lon="0.13464">
    <ele>30.3</ele>
    <name><![CDATA[011]]></name>
  </wpt>
  <wpt lat="47.24086" lon="0.13591">
    <ele>35.5</ele>
    <name><![CDATA[012]]></name>
  </wpt>
  <wpt lat="47.24099" lon="0.13677">
    <ele>35</ele>
    <name><![CDATA[013]]></name>
  </wpt>
  <wpt lat="47.24178" lon="0.16166">
    <ele>36</ele>
    <name><![CDATA[014]]></name>
  </wpt>
  <wpt lat="47.24226" lon="0.16177">
    <ele>36.6</ele>
    <name><![CDATA[015]]></name>
  </wpt>
  <wpt lat="47.24265" lon="0.16191">
    <ele>34.2</ele>
    <name><![CDATA[016]]></name>
  </wpt>
  <wpt lat="47.24642" lon="0.16422">
    <ele>31</ele>
    <name><![CDATA[017]]></name>
  </wpt>
  <wpt lat="47.24576" lon="0.1655">
    <ele>31</ele>
    <name><![CDATA[018]]></name>
  </wpt>
  <wpt lat="47.24674" lon="0.18899">
    <ele>32.7</ele>
    <name><![CDATA[019]]></name>
  </wpt>
  <wpt lat="47.25193" lon="0.20842">
    <ele>33</ele>
    <name><![CDATA[020]]></name>
  </wpt>
  <wpt lat="47.26355" lon="0.204">
    <ele>31</ele>
    <name><![CDATA[021]]></name>
  </wpt>
  <wpt lat="47.26769" lon="0.21955">
    <ele>32</ele>
    <name><![CDATA[022]]></name>
  </wpt>
  <wpt lat="47.2677" lon="0.21954">
    <ele>32</ele>
    <name><![CDATA[022]]></name>
  </wpt>
  <trk>
    <name><![CDATA[2022-02-23 13:38:35]]></name>
    <extensions>
      <line xmlns="http://www.topografix.com/GPX/gpx_style/0/2">
        <color>0000FF</color>
        <width>4</width>
      </line>
    </extensions>
    <trkseg>
      <trkpt lat="47.23417" lon="0.12048">
        <ele>34.24</ele>
        <time>2022-02-23T09:43:01Z</time>
      </trkpt>
      <trkpt lat="47.23423" lon="0.12058">
        <ele>33.87</ele>
        <time>2022-02-23T09:43:37Z</time>
      </trkpt>
      <trkpt lat="47.2343" lon="0.1207">
        <ele>33.83</ele>
        <time>2022-02-23T09:43:45Z</time>
      </trkpt>
      <trkpt lat="47.23439" lon="0.12082">
        <ele>33.79</ele>
        <time>2022-02-23T09:43:54Z</time>
      </trkpt>
      <trkpt lat="47.23446" lon="0.12096">
        <ele>33.95</ele>
        <time>2022-02-23T09:44:03Z</time>
      </trkpt>
      <trkpt lat="47.23455" lon="0.1211">
        <ele>34.04</ele>
        <time>2022-02-23T09:44:13Z</time>
      </trkpt>
      <trkpt lat="47.2346" lon="0.12124">
        <ele>34.08</ele>
        <time>2022-02-23T09:44:21Z</time>
      </trkpt>
      <trkpt lat="47.23462" lon="0.12141">
        <ele>34.3</ele>
        <time>2022-02-23T09:44:30Z</time>
      </trkpt>
      <trkpt lat="47.23468" lon="0.12155">
        <ele>34.14</ele>
        <time>2022-02-23T09:44:38Z</time>
      </trkpt>
      <trkpt lat="47.23472" lon="0.12171">
        <ele>34.23</ele>
        <time>2022-02-23T09:44:45Z</time>
      </trkpt>
      <trkpt lat="47.23471" lon="0.12187">
        <ele>34.27</ele>
        <time>2022-02-23T09:44:52Z</time>
      </trkpt>
      <trkpt lat="47.23473" lon="0.12203">
        <ele>34.27</ele>
        <time>2022-02-23T09:44:59Z</time>
      </trkpt>
      <trkpt lat="47.23477" lon="0.12216">
        <ele>34.08</ele>
        <time>2022-02-23T09:45:06Z</time>
      </trkpt>
      <trkpt lat="47.23477" lon="0.12231">
        <ele>34.19</ele>
        <time>2022-02-23T09:45:13Z</time>
      </trkpt>
      <trkpt lat="47.23477" lon="0.12245">
        <ele>34.29</ele>
        <time>2022-02-23T09:45:19Z</time>
      </trkpt>
      <trkpt lat="47.23478" lon="0.1226">
        <ele>34.1</ele>
        <time>2022-02-23T09:45:26Z</time>
      </trkpt>
      <trkpt lat="47.2348" lon="0.12275">
        <ele>33.87</ele>
        <time>2022-02-23T09:45:34Z</time>
      </trkpt>
      <trkpt lat="47.23482" lon="0.1229">
        <ele>33.74</ele>
        <time>2022-02-23T09:45:42Z</time>
      </trkpt>
      <trkpt lat="47.23486" lon="0.12303">
        <ele>34.1</ele>
        <time>2022-02-23T09:45:48Z</time>
      </trkpt>
      <trkpt lat="47.2349" lon="0.12317">
        <ele>34.16</ele>
        <time>2022-02-23T09:45:55Z</time>
      </trkpt>
      <trkpt lat="47.23494" lon="0.12332">
        <ele>34.22</ele>
        <time>2022-02-23T09:46:02Z</time>
      </trkpt>
      <trkpt lat="47.23497" lon="0.12345">
        <ele>33.99</ele>
        <time>2022-02-23T09:46:09Z</time>
      </trkpt>
      <trkpt lat="47.23499" lon="0.12358">
        <ele>33.83</ele>
        <time>2022-02-23T09:46:16Z</time>
      </trkpt>
      <trkpt lat="47.23503" lon="0.12373">
        <ele>34.01</ele>
        <time>2022-02-23T09:46:24Z</time>
      </trkpt>
      <trkpt lat="47.23507" lon="0.12387">
        <ele>34.16</ele>
        <time>2022-02-23T09:46:31Z</time>
      </trkpt>
      <trkpt lat="47.23509" lon="0.12402">
        <ele>34.16</ele>
        <time>2022-02-23T09:46:37Z</time>
      </trkpt>
      <trkpt lat="47.23514" lon="0.12415">
        <ele>34.21</ele>
        <time>2022-02-23T09:46:45Z</time>
      </trkpt>
      <trkpt lat="47.23519" lon="0.12429">
        <ele>34.29</ele>
        <time>2022-02-23T09:46:51Z</time>
      </trkpt>
      <trkpt lat="47.23524" lon="0.12441">
        <ele>34.35</ele>
        <time>2022-02-23T09:46:58Z</time>
      </trkpt>
      <trkpt lat="47.23527" lon="0.12456">
        <ele>34.53</ele>
        <time>2022-02-23T09:47:06Z</time>
      </trkpt>
      <trkpt lat="47.23533" lon="0.12467">
        <ele>35.29</ele>
        <time>2022-02-23T09:47:44Z</time>
      </trkpt>
      <trkpt lat="47.23537" lon="0.12481">
        <ele>35.08</ele>
        <time>2022-02-23T09:47:52Z</time>
      </trkpt>
      <trkpt lat="47.23542" lon="0.12492">
        <ele>34.81</ele>
        <time>2022-02-23T09:47:58Z</time>
      </trkpt>
      <trkpt lat="47.23546" lon="0.12505">
        <ele>34.62</ele>
        <time>2022-02-23T09:48:06Z</time>
      </trkpt>
      <trkpt lat="47.2355" lon="0.12519">
        <ele>34.98</ele>
        <time>2022-02-23T09:48:14Z</time>
      </trkpt>
      <trkpt lat="47.23553" lon="0.12532">
        <ele>34.74</ele>
        <time>2022-02-23T09:48:21Z</time>
      </trkpt>
      <trkpt lat="47.23556" lon="0.12546">
        <ele>34.78</ele>
        <time>2022-02-23T09:48:29Z</time>
      </trkpt>
      <trkpt lat="47.2356" lon="0.12559">
        <ele>34.73</ele>
        <time>2022-02-23T09:48:37Z</time>
      </trkpt>
      <trkpt lat="47.23565" lon="0.12573">
        <ele>34.72</ele>
        <time>2022-02-23T09:48:45Z</time>
      </trkpt>
      <trkpt lat="47.23569" lon="0.12586">
        <ele>34.78</ele>
        <time>2022-02-23T09:48:52Z</time>
      </trkpt>
      <trkpt lat="47.23572" lon="0.12599">
        <ele>34.84</ele>
        <time>2022-02-23T09:48:59Z</time>
      </trkpt>
      <trkpt lat="47.23576" lon="0.12612">
        <ele>34.9</ele>
        <time>2022-02-23T09:49:06Z</time>
      </trkpt>
      <trkpt lat="47.2358" lon="0.12626">
        <ele>34.79</ele>
        <time>2022-02-23T09:49:13Z</time>
      </trkpt>
      <trkpt lat="47.23583" lon="0.1264">
        <ele>34.71</ele>
        <time>2022-02-23T09:49:20Z</time>
      </trkpt>
      <trkpt lat="47.23586" lon="0.12652">
        <ele>34.63</ele>
        <time>2022-02-23T09:49:28Z</time>
      </trkpt>
      <trkpt lat="47.23589" lon="0.12665">
        <ele>34.86</ele>
        <time>2022-02-23T09:49:35Z</time>
      </trkpt>
      <trkpt lat="47.23592" lon="0.1268">
        <ele>35.23</ele>
        <time>2022-02-23T09:49:42Z</time>
      </trkpt>
      <trkpt lat="47.23596" lon="0.12693">
        <ele>35.31</ele>
        <time>2022-02-23T09:49:49Z</time>
      </trkpt>
      <trkpt lat="47.23602" lon="0.12706">
        <ele>35.42</ele>
        <time>2022-02-23T09:49:56Z</time>
      </trkpt>
      <trkpt lat="47.23607" lon="0.12719">
        <ele>35.34</ele>
        <time>2022-02-23T09:50:03Z</time>
      </trkpt>
      <trkpt lat="47.23612" lon="0.12731">
        <ele>35.5</ele>
        <time>2022-02-23T09:50:10Z</time>
      </trkpt>
      <trkpt lat="47.23617" lon="0.12744">
        <ele>35.46</ele>
        <time>2022-02-23T09:50:18Z</time>
      </trkpt>
      <trkpt lat="47.23621" lon="0.12757">
        <ele>35.54</ele>
        <time>2022-02-23T09:50:26Z</time>
      </trkpt>
      <trkpt lat="47.23626" lon="0.1277">
        <ele>35.6</ele>
        <time>2022-02-23T09:50:34Z</time>
      </trkpt>
      <trkpt lat="47.23631" lon="0.12782">
        <ele>35.45</ele>
        <time>2022-02-23T09:50:42Z</time>
      </trkpt>
      <trkpt lat="47.23636" lon="0.12794">
        <ele>35.48</ele>
        <time>2022-02-23T09:50:52Z</time>
      </trkpt>
      <trkpt lat="47.23641" lon="0.12808">
        <ele>35.5</ele>
        <time>2022-02-23T09:51:00Z</time>
      </trkpt>
      <trkpt lat="47.23645" lon="0.12822">
        <ele>35.44</ele>
        <time>2022-02-23T09:51:08Z</time>
      </trkpt>
      <trkpt lat="47.2365" lon="0.12836">
        <ele>35.63</ele>
        <time>2022-02-23T09:51:16Z</time>
      </trkpt>
      <trkpt lat="47.23655" lon="0.12849">
        <ele>35.56</ele>
        <time>2022-02-23T09:51:24Z</time>
      </trkpt>
      <trkpt lat="47.2366" lon="0.12862">
        <ele>35.41</ele>
        <time>2022-02-23T09:51:32Z</time>
      </trkpt>
      <trkpt lat="47.23665" lon="0.12876">
        <ele>35.31</ele>
        <time>2022-02-23T09:51:40Z</time>
      </trkpt>
      <trkpt lat="47.23671" lon="0.12889">
        <ele>35.27</ele>
        <time>2022-02-23T09:51:48Z</time>
      </trkpt>
      <trkpt lat="47.23676" lon="0.12901">
        <ele>34.98</ele>
        <time>2022-02-23T09:51:55Z</time>
      </trkpt>
      <trkpt lat="47.23682" lon="0.12913">
        <ele>34.79</ele>
        <time>2022-02-23T09:52:02Z</time>
      </trkpt>
      <trkpt lat="47.23687" lon="0.12924">
        <ele>34.58</ele>
        <time>2022-02-23T09:52:09Z</time>
      </trkpt>
      <trkpt lat="47.23692" lon="0.12937">
        <ele>34.48</ele>
        <time>2022-02-23T09:52:17Z</time>
      </trkpt>
      <trkpt lat="47.23698" lon="0.1295">
        <ele>34.4</ele>
        <time>2022-02-23T09:52:25Z</time>
      </trkpt>
      <trkpt lat="47.23705" lon="0.12962">
        <ele>34.57</ele>
        <time>2022-02-23T09:52:33Z</time>
      </trkpt>
      <trkpt lat="47.23711" lon="0.12974">
        <ele>34.43</ele>
        <time>2022-02-23T09:52:41Z</time>
      </trkpt>
      <trkpt lat="47.23718" lon="0.12985">
        <ele>34.68</ele>
        <time>2022-02-23T09:52:48Z</time>
      </trkpt>
      <trkpt lat="47.23725" lon="0.12995">
        <ele>34.77</ele>
        <time>2022-02-23T09:52:56Z</time>
      </trkpt>
      <trkpt lat="47.23732" lon="0.13007">
        <ele>34.87</ele>
        <time>2022-02-23T09:53:04Z</time>
      </trkpt>
      <trkpt lat="47.23739" lon="0.13015">
        <ele>35.01</ele>
        <time>2022-02-23T09:53:11Z</time>
      </trkpt>
      <trkpt lat="47.23749" lon="0.13019">
        <ele>35.48</ele>
        <time>2022-02-23T09:53:19Z</time>
      </trkpt>
      <trkpt lat="47.23754" lon="0.13015">
        <ele>37.16</ele>
        <time>2022-02-23T09:54:01Z</time>
      </trkpt>
      <trkpt lat="47.23761" lon="0.13019">
        <ele>39.73</ele>
        <time>2022-02-23T09:54:55Z</time>
      </trkpt>
      <trkpt lat="47.23768" lon="0.13029">
        <ele>39.71</ele>
        <time>2022-02-23T09:55:05Z</time>
      </trkpt>
      <trkpt lat="47.23773" lon="0.13021">
        <ele>39.55</ele>
        <time>2022-02-23T09:56:05Z</time>
      </trkpt>
      <trkpt lat="47.23775" lon="0.13009">
        <ele>39.55</ele>
        <time>2022-02-23T09:56:22Z</time>
      </trkpt>
      <trkpt lat="47.23782" lon="0.12998">
        <ele>39.24</ele>
        <time>2022-02-23T09:57:15Z</time>
      </trkpt>
      <trkpt lat="47.23792" lon="0.12994">
        <ele>38.81</ele>
        <time>2022-02-23T09:57:24Z</time>
      </trkpt>
      <trkpt lat="47.238" lon="0.12987">
        <ele>38.6</ele>
        <time>2022-02-23T09:57:33Z</time>
      </trkpt>
      <trkpt lat="47.23809" lon="0.12978">
        <ele>38</ele>
        <time>2022-02-23T09:58:25Z</time>
      </trkpt>
      <trkpt lat="47.2382" lon="0.12973">
        <ele>37.08</ele>
        <time>2022-02-23T09:58:35Z</time>
      </trkpt>
      <trkpt lat="47.23829" lon="0.12971">
        <ele>36.36</ele>
        <time>2022-02-23T09:58:45Z</time>
      </trkpt>
      <trkpt lat="47.23836" lon="0.12979">
        <ele>35.95</ele>
        <time>2022-02-23T09:59:13Z</time>
      </trkpt>
      <trkpt lat="47.23847" lon="0.12974">
        <ele>35.49</ele>
        <time>2022-02-23T09:59:28Z</time>
      </trkpt>
      <trkpt lat="47.23856" lon="0.12975">
        <ele>35.1</ele>
        <time>2022-02-23T10:00:06Z</time>
      </trkpt>
      <trkpt lat="47.23866" lon="0.12973">
        <ele>34.81</ele>
        <time>2022-02-23T10:00:13Z</time>
      </trkpt>
      <trkpt lat="47.23876" lon="0.12973">
        <ele>34.51</ele>
        <time>2022-02-23T10:00:20Z</time>
      </trkpt>
      <trkpt lat="47.23886" lon="0.12973">
        <ele>34.32</ele>
        <time>2022-02-23T10:00:27Z</time>
      </trkpt>
      <trkpt lat="47.23895" lon="0.12971">
        <ele>34.48</ele>
        <time>2022-02-23T10:00:51Z</time>
      </trkpt>
      <trkpt lat="47.23904" lon="0.12962">
        <ele>34.3</ele>
        <time>2022-02-23T10:01:03Z</time>
      </trkpt>
      <trkpt lat="47.23912" lon="0.12947">
        <ele>34.06</ele>
        <time>2022-02-23T10:01:16Z</time>
      </trkpt>
      <trkpt lat="47.23915" lon="0.12931">
        <ele>34.01</ele>
        <time>2022-02-23T10:01:23Z</time>
      </trkpt>
      <trkpt lat="47.23918" lon="0.12917">
        <ele>33.91</ele>
        <time>2022-02-23T10:01:31Z</time>
      </trkpt>
      <trkpt lat="47.23918" lon="0.12897">
        <ele>34.25</ele>
        <time>2022-02-23T10:01:41Z</time>
      </trkpt>
      <trkpt lat="47.23919" lon="0.12882">
        <ele>33.93</ele>
        <time>2022-02-23T10:01:49Z</time>
      </trkpt>
      <trkpt lat="47.23919" lon="0.12869">
        <ele>33.54</ele>
        <time>2022-02-23T10:02:01Z</time>
      </trkpt>
      <trkpt lat="47.23926" lon="0.1287">
        <ele>33.74</ele>
        <time>2022-02-23T10:02:34Z</time>
      </trkpt>
      <trkpt lat="47.23937" lon="0.12872">
        <ele>33.59</ele>
        <time>2022-02-23T10:02:49Z</time>
      </trkpt>
      <trkpt lat="47.23947" lon="0.12873">
        <ele>33.64</ele>
        <time>2022-02-23T10:02:58Z</time>
      </trkpt>
      <trkpt lat="47.23958" lon="0.12874">
        <ele>33.79</ele>
        <time>2022-02-23T10:03:07Z</time>
      </trkpt>
      <trkpt lat="47.23966" lon="0.12876">
        <ele>33.62</ele>
        <time>2022-02-23T10:03:18Z</time>
      </trkpt>
      <trkpt lat="47.23975" lon="0.1288">
        <ele>33.87</ele>
        <time>2022-02-23T10:03:25Z</time>
      </trkpt>
      <trkpt lat="47.23985" lon="0.12884">
        <ele>33.83</ele>
        <time>2022-02-23T10:03:32Z</time>
      </trkpt>
      <trkpt lat="47.23995" lon="0.12888">
        <ele>33.41</ele>
        <time>2022-02-23T10:03:40Z</time>
      </trkpt>
      <trkpt lat="47.24004" lon="0.1289">
        <ele>33.38</ele>
        <time>2022-02-23T10:03:48Z</time>
      </trkpt>
      <trkpt lat="47.24015" lon="0.12892">
        <ele>33.37</ele>
        <time>2022-02-23T10:03:56Z</time>
      </trkpt>
      <trkpt lat="47.24025" lon="0.12894">
        <ele>33.17</ele>
        <time>2022-02-23T10:04:02Z</time>
      </trkpt>
      <trkpt lat="47.24035" lon="0.12895">
        <ele>33.03</ele>
        <time>2022-02-23T10:04:09Z</time>
      </trkpt>
      <trkpt lat="47.24046" lon="0.12897">
        <ele>32.87</ele>
        <time>2022-02-23T10:04:15Z</time>
      </trkpt>
      <trkpt lat="47.24055" lon="0.129">
        <ele>32.72</ele>
        <time>2022-02-23T10:04:23Z</time>
      </trkpt>
      <trkpt lat="47.24064" lon="0.12901">
        <ele>33.04</ele>
        <time>2022-02-23T10:04:30Z</time>
      </trkpt>
      <trkpt lat="47.24074" lon="0.12902">
        <ele>33.03</ele>
        <time>2022-02-23T10:04:38Z</time>
      </trkpt>
      <trkpt lat="47.24083" lon="0.12903">
        <ele>33.02</ele>
        <time>2022-02-23T10:04:45Z</time>
      </trkpt>
      <trkpt lat="47.24092" lon="0.12903">
        <ele>32.97</ele>
        <time>2022-02-23T10:04:51Z</time>
      </trkpt>
      <trkpt lat="47.24101" lon="0.12904">
        <ele>32.93</ele>
        <time>2022-02-23T10:04:58Z</time>
      </trkpt>
      <trkpt lat="47.24113" lon="0.12907">
        <ele>32.89</ele>
        <time>2022-02-23T10:05:06Z</time>
      </trkpt>
      <trkpt lat="47.24123" lon="0.12906">
        <ele>32.82</ele>
        <time>2022-02-23T10:05:13Z</time>
      </trkpt>
      <trkpt lat="47.24133" lon="0.12907">
        <ele>32.71</ele>
        <time>2022-02-23T10:05:20Z</time>
      </trkpt>
      <trkpt lat="47.24143" lon="0.12907">
        <ele>32.92</ele>
        <time>2022-02-23T10:05:27Z</time>
      </trkpt>
      <trkpt lat="47.24154" lon="0.12907">
        <ele>33.06</ele>
        <time>2022-02-23T10:05:34Z</time>
      </trkpt>
      <trkpt lat="47.24164" lon="0.12906">
        <ele>33.07</ele>
        <time>2022-02-23T10:05:40Z</time>
      </trkpt>
      <trkpt lat="47.24174" lon="0.12902">
        <ele>33.1</ele>
        <time>2022-02-23T10:05:47Z</time>
      </trkpt>
      <trkpt lat="47.24185" lon="0.12898">
        <ele>32.98</ele>
        <time>2022-02-23T10:05:54Z</time>
      </trkpt>
      <trkpt lat="47.24195" lon="0.12894">
        <ele>33.05</ele>
        <time>2022-02-23T10:06:02Z</time>
      </trkpt>
      <trkpt lat="47.24204" lon="0.12892">
        <ele>33.19</ele>
        <time>2022-02-23T10:06:10Z</time>
      </trkpt>
      <trkpt lat="47.24212" lon="0.12888">
        <ele>33.1</ele>
        <time>2022-02-23T10:06:17Z</time>
      </trkpt>
      <trkpt lat="47.24222" lon="0.12885">
        <ele>32.89</ele>
        <time>2022-02-23T10:06:25Z</time>
      </trkpt>
      <trkpt lat="47.2423" lon="0.12884">
        <ele>33.3</ele>
        <time>2022-02-23T10:06:54Z</time>
      </trkpt>
      <trkpt lat="47.24241" lon="0.12883">
        <ele>33.02</ele>
        <time>2022-02-23T10:07:03Z</time>
      </trkpt>
      <trkpt lat="47.2425" lon="0.1288">
        <ele>32.93</ele>
        <time>2022-02-23T10:07:10Z</time>
      </trkpt>
      <trkpt lat="47.24261" lon="0.1288">
        <ele>32.84</ele>
        <time>2022-02-23T10:07:18Z</time>
      </trkpt>
      <trkpt lat="47.2427" lon="0.12879">
        <ele>32.89</ele>
        <time>2022-02-23T10:07:26Z</time>
      </trkpt>
      <trkpt lat="47.24282" lon="0.12878">
        <ele>33.1</ele>
        <time>2022-02-23T10:07:35Z</time>
      </trkpt>
      <trkpt lat="47.24292" lon="0.12878">
        <ele>33.16</ele>
        <time>2022-02-23T10:07:43Z</time>
      </trkpt>
      <trkpt lat="47.24303" lon="0.12878">
        <ele>33.3</ele>
        <time>2022-02-23T10:07:51Z</time>
      </trkpt>
      <trkpt lat="47.24304" lon="0.12889">
        <ele>33.61</ele>
        <time>2022-02-23T10:07:58Z</time>
      </trkpt>
      <trkpt lat="47.24303" lon="0.12903">
        <ele>33.68</ele>
        <time>2022-02-23T10:08:05Z</time>
      </trkpt>
      <trkpt lat="47.24301" lon="0.12917">
        <ele>33.55</ele>
        <time>2022-02-23T10:08:13Z</time>
      </trkpt>
      <trkpt lat="47.24298" lon="0.1293">
        <ele>33.49</ele>
        <time>2022-02-23T10:08:20Z</time>
      </trkpt>
      <trkpt lat="47.24294" lon="0.12942">
        <ele>33.2</ele>
        <time>2022-02-23T10:08:28Z</time>
      </trkpt>
      <trkpt lat="47.2429" lon="0.12955">
        <ele>33.18</ele>
        <time>2022-02-23T10:08:35Z</time>
      </trkpt>
      <trkpt lat="47.24286" lon="0.12967">
        <ele>33.43</ele>
        <time>2022-02-23T10:08:43Z</time>
      </trkpt>
      <trkpt lat="47.24286" lon="0.12985">
        <ele>33.89</ele>
        <time>2022-02-23T10:09:19Z</time>
      </trkpt>
      <trkpt lat="47.24284" lon="0.12998">
        <ele>33.97</ele>
        <time>2022-02-23T10:09:25Z</time>
      </trkpt>
      <trkpt lat="47.24282" lon="0.13011">
        <ele>33.87</ele>
        <time>2022-02-23T10:09:32Z</time>
      </trkpt>
      <trkpt lat="47.2428" lon="0.13025">
        <ele>33.94</ele>
        <time>2022-02-23T10:09:40Z</time>
      </trkpt>
      <trkpt lat="47.24278" lon="0.1304">
        <ele>34.08</ele>
        <time>2022-02-23T10:09:47Z</time>
      </trkpt>
      <trkpt lat="47.24276" lon="0.13054">
        <ele>34.09</ele>
        <time>2022-02-23T10:09:54Z</time>
      </trkpt>
      <trkpt lat="47.24273" lon="0.13067">
        <ele>34.29</ele>
        <time>2022-02-23T10:10:01Z</time>
      </trkpt>
      <trkpt lat="47.24271" lon="0.1308">
        <ele>34.37</ele>
        <time>2022-02-23T10:10:08Z</time>
      </trkpt>
      <trkpt lat="47.24267" lon="0.13094">
        <ele>34.29</ele>
        <time>2022-02-23T10:10:15Z</time>
      </trkpt>
      <trkpt lat="47.24264" lon="0.13107">
        <ele>34.29</ele>
        <time>2022-02-23T10:10:22Z</time>
      </trkpt>
      <trkpt lat="47.24261" lon="0.1312">
        <ele>34.15</ele>
        <time>2022-02-23T10:10:29Z</time>
      </trkpt>
      <trkpt lat="47.2426" lon="0.13133">
        <ele>34.22</ele>
        <time>2022-02-23T10:10:36Z</time>
      </trkpt>
      <trkpt lat="47.24258" lon="0.13147">
        <ele>34.45</ele>
        <time>2022-02-23T10:10:43Z</time>
      </trkpt>
      <trkpt lat="47.24256" lon="0.13159">
        <ele>34.32</ele>
        <time>2022-02-23T10:10:49Z</time>
      </trkpt>
      <trkpt lat="47.24254" lon="0.13172">
        <ele>34.39</ele>
        <time>2022-02-23T10:10:56Z</time>
      </trkpt>
      <trkpt lat="47.24252" lon="0.13185">
        <ele>34.52</ele>
        <time>2022-02-23T10:11:03Z</time>
      </trkpt>
      <trkpt lat="47.24251" lon="0.13198">
        <ele>34.56</ele>
        <time>2022-02-23T10:11:10Z</time>
      </trkpt>
      <trkpt lat="47.24248" lon="0.13211">
        <ele>34.68</ele>
        <time>2022-02-23T10:11:17Z</time>
      </trkpt>
      <trkpt lat="47.24245" lon="0.13223">
        <ele>34.63</ele>
        <time>2022-02-23T10:11:23Z</time>
      </trkpt>
      <trkpt lat="47.24243" lon="0.13236">
        <ele>34.57</ele>
        <time>2022-02-23T10:11:30Z</time>
      </trkpt>
      <trkpt lat="47.24241" lon="0.13248">
        <ele>34.4</ele>
        <time>2022-02-23T10:11:37Z</time>
      </trkpt>
      <trkpt lat="47.24238" lon="0.13262">
        <ele>34.3</ele>
        <time>2022-02-23T10:11:45Z</time>
      </trkpt>
      <trkpt lat="47.24235" lon="0.13276">
        <ele>34.29</ele>
        <time>2022-02-23T10:11:53Z</time>
      </trkpt>
      <trkpt lat="47.24231" lon="0.13288">
        <ele>34.44</ele>
        <time>2022-02-23T10:12:00Z</time>
      </trkpt>
      <trkpt lat="47.24228" lon="0.13302">
        <ele>34.82</ele>
        <time>2022-02-23T10:12:08Z</time>
      </trkpt>
      <trkpt lat="47.24223" lon="0.13315">
        <ele>34.84</ele>
        <time>2022-02-23T10:12:15Z</time>
      </trkpt>
      <trkpt lat="47.24219" lon="0.13329">
        <ele>34.77</ele>
        <time>2022-02-23T10:12:22Z</time>
      </trkpt>
      <trkpt lat="47.24215" lon="0.13342">
        <ele>34.79</ele>
        <time>2022-02-23T10:12:29Z</time>
      </trkpt>
      <trkpt lat="47.24212" lon="0.13356">
        <ele>34.86</ele>
        <time>2022-02-23T10:12:36Z</time>
      </trkpt>
      <trkpt lat="47.24208" lon="0.13369">
        <ele>34.71</ele>
        <time>2022-02-23T10:12:44Z</time>
      </trkpt>
      <trkpt lat="47.24204" lon="0.13382">
        <ele>34.79</ele>
        <time>2022-02-23T10:12:52Z</time>
      </trkpt>
      <trkpt lat="47.24202" lon="0.13396">
        <ele>34.73</ele>
        <time>2022-02-23T10:13:00Z</time>
      </trkpt>
      <trkpt lat="47.24198" lon="0.1341">
        <ele>34.92</ele>
        <time>2022-02-23T10:13:08Z</time>
      </trkpt>
      <trkpt lat="47.24195" lon="0.13424">
        <ele>34.85</ele>
        <time>2022-02-23T10:13:16Z</time>
      </trkpt>
      <trkpt lat="47.24193" lon="0.13437">
        <ele>34.81</ele>
        <time>2022-02-23T10:13:23Z</time>
      </trkpt>
      <trkpt lat="47.2419" lon="0.1345">
        <ele>34.87</ele>
        <time>2022-02-23T10:13:31Z</time>
      </trkpt>
      <trkpt lat="47.24191" lon="0.13463">
        <ele>34.94</ele>
        <time>2022-02-23T10:13:41Z</time>
      </trkpt>
      <trkpt lat="47.2419" lon="0.13478">
        <ele>35.19</ele>
        <time>2022-02-23T10:14:00Z</time>
      </trkpt>
      <trkpt lat="47.24193" lon="0.13491">
        <ele>35.05</ele>
        <time>2022-02-23T10:14:07Z</time>
      </trkpt>
      <trkpt lat="47.24194" lon="0.13505">
        <ele>35.21</ele>
        <time>2022-02-23T10:14:15Z</time>
      </trkpt>
      <trkpt lat="47.24197" lon="0.13518">
        <ele>35.13</ele>
        <time>2022-02-23T10:14:22Z</time>
      </trkpt>
      <trkpt lat="47.24198" lon="0.13533">
        <ele>34.73</ele>
        <time>2022-02-23T10:14:29Z</time>
      </trkpt>
      <trkpt lat="47.24197" lon="0.13546">
        <ele>34.69</ele>
        <time>2022-02-23T10:14:37Z</time>
      </trkpt>
      <trkpt lat="47.24199" lon="0.13558">
        <ele>35.3</ele>
        <time>2022-02-23T10:14:48Z</time>
      </trkpt>
      <trkpt lat="47.242" lon="0.13573">
        <ele>35.41</ele>
        <time>2022-02-23T10:14:55Z</time>
      </trkpt>
      <trkpt lat="47.24199" lon="0.13587">
        <ele>35.21</ele>
        <time>2022-02-23T10:15:03Z</time>
      </trkpt>
      <trkpt lat="47.24197" lon="0.13602">
        <ele>35.01</ele>
        <time>2022-02-23T10:15:10Z</time>
      </trkpt>
      <trkpt lat="47.24195" lon="0.13616">
        <ele>34.91</ele>
        <time>2022-02-23T10:15:18Z</time>
      </trkpt>
      <trkpt lat="47.24186" lon="0.13621">
        <ele>34.74</ele>
        <time>2022-02-23T10:15:26Z</time>
      </trkpt>
      <trkpt lat="47.24176" lon="0.13624">
        <ele>34.81</ele>
        <time>2022-02-23T10:15:34Z</time>
      </trkpt>
      <trkpt lat="47.24165" lon="0.13626">
        <ele>34.85</ele>
        <time>2022-02-23T10:15:42Z</time>
      </trkpt>
      <trkpt lat="47.24156" lon="0.13629">
        <ele>34.78</ele>
        <time>2022-02-23T10:15:49Z</time>
      </trkpt>
      <trkpt lat="47.24146" lon="0.1363">
        <ele>34.75</ele>
        <time>2022-02-23T10:15:57Z</time>
      </trkpt>
      <trkpt lat="47.24136" lon="0.13633">
        <ele>34.88</ele>
        <time>2022-02-23T10:16:04Z</time>
      </trkpt>
      <trkpt lat="47.24125" lon="0.13636">
        <ele>35.06</ele>
        <time>2022-02-23T10:16:12Z</time>
      </trkpt>
      <trkpt lat="47.24116" lon="0.13636">
        <ele>35.16</ele>
        <time>2022-02-23T10:16:20Z</time>
      </trkpt>
      <trkpt lat="47.24106" lon="0.1363">
        <ele>35.74</ele>
        <time>2022-02-23T10:16:27Z</time>
      </trkpt>
      <trkpt lat="47.241" lon="0.13619">
        <ele>36.66</ele>
        <time>2022-02-23T10:16:35Z</time>
      </trkpt>
      <trkpt lat="47.24095" lon="0.13606">
        <ele>37.71</ele>
        <time>2022-02-23T10:16:43Z</time>
      </trkpt>
      <trkpt lat="47.24091" lon="0.13595">
        <ele>39.06</ele>
        <time>2022-02-23T10:16:56Z</time>
      </trkpt>
      <trkpt lat="47.24087" lon="0.13592">
        <ele>40.14</ele>
        <time>2022-02-23T10:18:23Z</time>
      </trkpt>
      <trkpt lat="47.24083" lon="0.13605">
        <ele>40.4</ele>
        <time>2022-02-23T10:18:35Z</time>
      </trkpt>
      <trkpt lat="47.24086" lon="0.13617">
        <ele>40.42</ele>
        <time>2022-02-23T10:19:11Z</time>
      </trkpt>
      <trkpt lat="47.24092" lon="0.13628">
        <ele>40.58</ele>
        <time>2022-02-23T10:19:20Z</time>
      </trkpt>
      <trkpt lat="47.24095" lon="0.13642">
        <ele>40.7</ele>
        <time>2022-02-23T10:19:28Z</time>
      </trkpt>
      <trkpt lat="47.24098" lon="0.13655">
        <ele>40.61</ele>
        <time>2022-02-23T10:19:35Z</time>
      </trkpt>
      <trkpt lat="47.241" lon="0.13671">
        <ele>40.73</ele>
        <time>2022-02-23T10:19:43Z</time>
      </trkpt>
      <trkpt lat="47.24097" lon="0.13671">
        <ele>41.34</ele>
        <time>2022-02-23T10:20:14Z</time>
      </trkpt>
      <trkpt lat="47.24091" lon="0.13659">
        <ele>40.82</ele>
        <time>2022-02-23T10:20:23Z</time>
      </trkpt>
      <trkpt lat="47.24085" lon="0.13648">
        <ele>39.79</ele>
        <time>2022-02-23T10:20:30Z</time>
      </trkpt>
      <trkpt lat="47.24078" lon="0.13637">
        <ele>38.88</ele>
        <time>2022-02-23T10:20:38Z</time>
      </trkpt>
      <trkpt lat="47.24071" lon="0.13625">
        <ele>37.47</ele>
        <time>2022-02-23T10:20:46Z</time>
      </trkpt>
      <trkpt lat="47.24062" lon="0.13616">
        <ele>36.33</ele>
        <time>2022-02-23T10:20:53Z</time>
      </trkpt>
      <trkpt lat="47.24052" lon="0.13614">
        <ele>35.83</ele>
        <time>2022-02-23T10:21:01Z</time>
      </trkpt>
      <trkpt lat="47.24041" lon="0.13616">
        <ele>36.24</ele>
        <time>2022-02-23T10:21:13Z</time>
      </trkpt>
      <trkpt lat="47.2403" lon="0.13621">
        <ele>36.29</ele>
        <time>2022-02-23T10:21:23Z</time>
      </trkpt>
      <trkpt lat="47.2402" lon="0.13629">
        <ele>36.15</ele>
        <time>2022-02-23T10:21:33Z</time>
      </trkpt>
      <trkpt lat="47.24011" lon="0.13641">
        <ele>36.25</ele>
        <time>2022-02-23T10:21:42Z</time>
      </trkpt>
      <trkpt lat="47.24001" lon="0.13654">
        <ele>36.41</ele>
        <time>2022-02-23T10:21:54Z</time>
      </trkpt>
      <trkpt lat="47.23992" lon="0.13663">
        <ele>36.24</ele>
        <time>2022-02-23T10:22:04Z</time>
      </trkpt>
      <trkpt lat="47.23979" lon="0.13672">
        <ele>36.28</ele>
        <time>2022-02-23T10:22:16Z</time>
      </trkpt>
      <trkpt lat="47.23969" lon="0.13688">
        <ele>36.37</ele>
        <time>2022-02-23T10:22:32Z</time>
      </trkpt>
      <trkpt lat="47.2396" lon="0.13704">
        <ele>36.54</ele>
        <time>2022-02-23T10:22:44Z</time>
      </trkpt>
      <trkpt lat="47.23957" lon="0.13724">
        <ele>36.38</ele>
        <time>2022-02-23T10:22:56Z</time>
      </trkpt>
      <trkpt lat="47.2396" lon="0.13738">
        <ele>36.69</ele>
        <time>2022-02-23T10:23:05Z</time>
      </trkpt>
      <trkpt lat="47.23963" lon="0.13757">
        <ele>36.69</ele>
        <time>2022-02-23T10:23:14Z</time>
      </trkpt>
      <trkpt lat="47.23965" lon="0.13773">
        <ele>36.88</ele>
        <time>2022-02-23T10:23:23Z</time>
      </trkpt>
      <trkpt lat="47.23968" lon="0.13796">
        <ele>36.8</ele>
        <time>2022-02-23T10:23:34Z</time>
      </trkpt>
      <trkpt lat="47.23973" lon="0.13812">
        <ele>36.68</ele>
        <time>2022-02-23T10:23:42Z</time>
      </trkpt>
      <trkpt lat="47.23978" lon="0.13829">
        <ele>36.6</ele>
        <time>2022-02-23T10:23:51Z</time>
      </trkpt>
      <trkpt lat="47.23982" lon="0.13843">
        <ele>36.52</ele>
        <time>2022-02-23T10:23:59Z</time>
      </trkpt>
      <trkpt lat="47.23988" lon="0.13856">
        <ele>36.41</ele>
        <time>2022-02-23T10:24:07Z</time>
      </trkpt>
      <trkpt lat="47.23994" lon="0.13869">
        <ele>36.5</ele>
        <time>2022-02-23T10:24:15Z</time>
      </trkpt>
      <trkpt lat="47.24" lon="0.13881">
        <ele>36.86</ele>
        <time>2022-02-23T10:24:22Z</time>
      </trkpt>
      <trkpt lat="47.24006" lon="0.13894">
        <ele>36.88</ele>
        <time>2022-02-23T10:24:30Z</time>
      </trkpt>
      <trkpt lat="47.24011" lon="0.13907">
        <ele>36.49</ele>
        <time>2022-02-23T10:24:38Z</time>
      </trkpt>
      <trkpt lat="47.24016" lon="0.1392">
        <ele>36.24</ele>
        <time>2022-02-23T10:24:46Z</time>
      </trkpt>
      <trkpt lat="47.24024" lon="0.1393">
        <ele>36.2</ele>
        <time>2022-02-23T10:24:53Z</time>
      </trkpt>
      <trkpt lat="47.2403" lon="0.13943">
        <ele>36.2</ele>
        <time>2022-02-23T10:25:01Z</time>
      </trkpt>
      <trkpt lat="47.24035" lon="0.13956">
        <ele>36.24</ele>
        <time>2022-02-23T10:25:09Z</time>
      </trkpt>
      <trkpt lat="47.24034" lon="0.13971">
        <ele>36.29</ele>
        <time>2022-02-23T10:25:17Z</time>
      </trkpt>
      <trkpt lat="47.24032" lon="0.13986">
        <ele>36.55</ele>
        <time>2022-02-23T10:25:28Z</time>
      </trkpt>
      <trkpt lat="47.24033" lon="0.14001">
        <ele>36.91</ele>
        <time>2022-02-23T10:25:35Z</time>
      </trkpt>
      <trkpt lat="47.24039" lon="0.14013">
        <ele>37.14</ele>
        <time>2022-02-23T10:25:42Z</time>
      </trkpt>
      <trkpt lat="47.24046" lon="0.14022">
        <ele>37.16</ele>
        <time>2022-02-23T10:25:49Z</time>
      </trkpt>
      <trkpt lat="47.24053" lon="0.14033">
        <ele>37.46</ele>
        <time>2022-02-23T10:25:57Z</time>
      </trkpt>
      <trkpt lat="47.24062" lon="0.14043">
        <ele>37.3</ele>
        <time>2022-02-23T10:26:04Z</time>
      </trkpt>
      <trkpt lat="47.24067" lon="0.14055">
        <ele>37.22</ele>
        <time>2022-02-23T10:26:11Z</time>
      </trkpt>
      <trkpt lat="47.24073" lon="0.14067">
        <ele>36.94</ele>
        <time>2022-02-23T10:26:19Z</time>
      </trkpt>
      <trkpt lat="47.24079" lon="0.14079">
        <ele>36.91</ele>
        <time>2022-02-23T10:26:27Z</time>
      </trkpt>
      <trkpt lat="47.24084" lon="0.14092">
        <ele>36.94</ele>
        <time>2022-02-23T10:26:34Z</time>
      </trkpt>
      <trkpt lat="47.24086" lon="0.14107">
        <ele>37.64</ele>
        <time>2022-02-23T10:26:43Z</time>
      </trkpt>
      <trkpt lat="47.24086" lon="0.14121">
        <ele>37.59</ele>
        <time>2022-02-23T10:26:51Z</time>
      </trkpt>
      <trkpt lat="47.24086" lon="0.14135">
        <ele>37.28</ele>
        <time>2022-02-23T10:26:58Z</time>
      </trkpt>
      <trkpt lat="47.24087" lon="0.1415">
        <ele>37.11</ele>
        <time>2022-02-23T10:27:05Z</time>
      </trkpt>
      <trkpt lat="47.24088" lon="0.14165">
        <ele>36.98</ele>
        <time>2022-02-23T10:27:12Z</time>
      </trkpt>
      <trkpt lat="47.2409" lon="0.14179">
        <ele>36.91</ele>
        <time>2022-02-23T10:27:19Z</time>
      </trkpt>
      <trkpt lat="47.24092" lon="0.14192">
        <ele>36.95</ele>
        <time>2022-02-23T10:27:26Z</time>
      </trkpt>
      <trkpt lat="47.24094" lon="0.14206">
        <ele>36.92</ele>
        <time>2022-02-23T10:27:33Z</time>
      </trkpt>
      <trkpt lat="47.24095" lon="0.14218">
        <ele>37.17</ele>
        <time>2022-02-23T10:27:40Z</time>
      </trkpt>
      <trkpt lat="47.24097" lon="0.14232">
        <ele>37.26</ele>
        <time>2022-02-23T10:27:48Z</time>
      </trkpt>
      <trkpt lat="47.24099" lon="0.14246">
        <ele>37.27</ele>
        <time>2022-02-23T10:27:55Z</time>
      </trkpt>
      <trkpt lat="47.24102" lon="0.1426">
        <ele>37.4</ele>
        <time>2022-02-23T10:28:02Z</time>
      </trkpt>
      <trkpt lat="47.24103" lon="0.14273">
        <ele>37.54</ele>
        <time>2022-02-23T10:28:09Z</time>
      </trkpt>
      <trkpt lat="47.24104" lon="0.14286">
        <ele>37.4</ele>
        <time>2022-02-23T10:28:23Z</time>
      </trkpt>
      <trkpt lat="47.24105" lon="0.143">
        <ele>37.52</ele>
        <time>2022-02-23T10:28:30Z</time>
      </trkpt>
      <trkpt lat="47.24106" lon="0.14315">
        <ele>37.55</ele>
        <time>2022-02-23T10:28:37Z</time>
      </trkpt>
      <trkpt lat="47.24105" lon="0.14329">
        <ele>37.44</ele>
        <time>2022-02-23T10:28:44Z</time>
      </trkpt>
      <trkpt lat="47.24106" lon="0.14342">
        <ele>37.24</ele>
        <time>2022-02-23T10:28:51Z</time>
      </trkpt>
      <trkpt lat="47.24108" lon="0.14355">
        <ele>37.25</ele>
        <time>2022-02-23T10:28:58Z</time>
      </trkpt>
      <trkpt lat="47.2411" lon="0.14368">
        <ele>37.22</ele>
        <time>2022-02-23T10:29:06Z</time>
      </trkpt>
      <trkpt lat="47.24111" lon="0.14382">
        <ele>37.3</ele>
        <time>2022-02-23T10:29:14Z</time>
      </trkpt>
      <trkpt lat="47.24114" lon="0.14395">
        <ele>37.57</ele>
        <time>2022-02-23T10:29:21Z</time>
      </trkpt>
      <trkpt lat="47.24116" lon="0.14411">
        <ele>37.47</ele>
        <time>2022-02-23T10:29:29Z</time>
      </trkpt>
      <trkpt lat="47.24118" lon="0.14426">
        <ele>37.71</ele>
        <time>2022-02-23T10:29:37Z</time>
      </trkpt>
      <trkpt lat="47.24123" lon="0.1444">
        <ele>37.71</ele>
        <time>2022-02-23T10:29:45Z</time>
      </trkpt>
      <trkpt lat="47.24129" lon="0.14452">
        <ele>37.67</ele>
        <time>2022-02-23T10:29:52Z</time>
      </trkpt>
      <trkpt lat="47.24134" lon="0.14465">
        <ele>37.68</ele>
        <time>2022-02-23T10:29:59Z</time>
      </trkpt>
      <trkpt lat="47.24134" lon="0.14479">
        <ele>37.77</ele>
        <time>2022-02-23T10:30:06Z</time>
      </trkpt>
      <trkpt lat="47.24135" lon="0.14493">
        <ele>37.67</ele>
        <time>2022-02-23T10:30:13Z</time>
      </trkpt>
      <trkpt lat="47.24137" lon="0.14506">
        <ele>37.68</ele>
        <time>2022-02-23T10:30:20Z</time>
      </trkpt>
      <trkpt lat="47.24138" lon="0.1452">
        <ele>37.83</ele>
        <time>2022-02-23T10:30:28Z</time>
      </trkpt>
      <trkpt lat="47.24141" lon="0.14534">
        <ele>37.97</ele>
        <time>2022-02-23T10:30:35Z</time>
      </trkpt>
      <trkpt lat="47.24142" lon="0.1455">
        <ele>37.99</ele>
        <time>2022-02-23T10:30:43Z</time>
      </trkpt>
      <trkpt lat="47.24144" lon="0.14564">
        <ele>38.24</ele>
        <time>2022-02-23T10:30:51Z</time>
      </trkpt>
      <trkpt lat="47.24146" lon="0.14577">
        <ele>38.4</ele>
        <time>2022-02-23T10:30:58Z</time>
      </trkpt>
      <trkpt lat="47.24149" lon="0.14591">
        <ele>38.37</ele>
        <time>2022-02-23T10:31:05Z</time>
      </trkpt>
      <trkpt lat="47.24152" lon="0.14605">
        <ele>38.27</ele>
        <time>2022-02-23T10:31:13Z</time>
      </trkpt>
      <trkpt lat="47.24152" lon="0.14619">
        <ele>38.19</ele>
        <time>2022-02-23T10:31:21Z</time>
      </trkpt>
      <trkpt lat="47.24152" lon="0.14633">
        <ele>38.26</ele>
        <time>2022-02-23T10:31:29Z</time>
      </trkpt>
      <trkpt lat="47.24152" lon="0.14648">
        <ele>38.23</ele>
        <time>2022-02-23T10:31:37Z</time>
      </trkpt>
      <trkpt lat="47.24149" lon="0.14663">
        <ele>38.51</ele>
        <time>2022-02-23T10:31:46Z</time>
      </trkpt>
      <trkpt lat="47.24145" lon="0.14677">
        <ele>38.66</ele>
        <time>2022-02-23T10:31:54Z</time>
      </trkpt>
      <trkpt lat="47.24138" lon="0.1469">
        <ele>38.93</ele>
        <time>2022-02-23T10:32:01Z</time>
      </trkpt>
      <trkpt lat="47.24131" lon="0.14697">
        <ele>39.06</ele>
        <time>2022-02-23T10:32:07Z</time>
      </trkpt>
      <trkpt lat="47.24123" lon="0.14704">
        <ele>39.32</ele>
        <time>2022-02-23T10:32:15Z</time>
      </trkpt>
      <trkpt lat="47.24114" lon="0.1471">
        <ele>39.44</ele>
        <time>2022-02-23T10:32:23Z</time>
      </trkpt>
      <trkpt lat="47.24105" lon="0.14714">
        <ele>39.52</ele>
        <time>2022-02-23T10:32:30Z</time>
      </trkpt>
      <trkpt lat="47.24096" lon="0.14717">
        <ele>39.33</ele>
        <time>2022-02-23T10:32:37Z</time>
      </trkpt>
      <trkpt lat="47.24086" lon="0.14721">
        <ele>39.51</ele>
        <time>2022-02-23T10:32:44Z</time>
      </trkpt>
      <trkpt lat="47.24076" lon="0.14725">
        <ele>39.57</ele>
        <time>2022-02-23T10:32:52Z</time>
      </trkpt>
      <trkpt lat="47.24066" lon="0.14729">
        <ele>39.46</ele>
        <time>2022-02-23T10:32:59Z</time>
      </trkpt>
      <trkpt lat="47.24057" lon="0.14733">
        <ele>39.39</ele>
        <time>2022-02-23T10:33:06Z</time>
      </trkpt>
      <trkpt lat="47.24047" lon="0.14735">
        <ele>39.6</ele>
        <time>2022-02-23T10:33:14Z</time>
      </trkpt>
      <trkpt lat="47.24037" lon="0.14738">
        <ele>39.66</ele>
        <time>2022-02-23T10:33:21Z</time>
      </trkpt>
      <trkpt lat="47.24028" lon="0.14741">
        <ele>39.28</ele>
        <time>2022-02-23T10:33:28Z</time>
      </trkpt>
      <trkpt lat="47.24018" lon="0.14745">
        <ele>39.15</ele>
        <time>2022-02-23T10:33:36Z</time>
      </trkpt>
      <trkpt lat="47.24014" lon="0.14757">
        <ele>38.96</ele>
        <time>2022-02-23T10:33:45Z</time>
      </trkpt>
      <trkpt lat="47.24016" lon="0.14771">
        <ele>39.53</ele>
        <time>2022-02-23T10:33:54Z</time>
      </trkpt>
      <trkpt lat="47.24019" lon="0.14785">
        <ele>39.61</ele>
        <time>2022-02-23T10:34:01Z</time>
      </trkpt>
      <trkpt lat="47.24022" lon="0.14799">
        <ele>39.73</ele>
        <time>2022-02-23T10:34:10Z</time>
      </trkpt>
      <trkpt lat="47.24024" lon="0.14816">
        <ele>39.88</ele>
        <time>2022-02-23T10:34:19Z</time>
      </trkpt>
      <trkpt lat="47.24026" lon="0.1483">
        <ele>39.77</ele>
        <time>2022-02-23T10:34:28Z</time>
      </trkpt>
      <trkpt lat="47.24026" lon="0.14847">
        <ele>39.68</ele>
        <time>2022-02-23T10:34:37Z</time>
      </trkpt>
      <trkpt lat="47.24025" lon="0.14863">
        <ele>39.66</ele>
        <time>2022-02-23T10:34:46Z</time>
      </trkpt>
      <trkpt lat="47.24025" lon="0.14879">
        <ele>39.73</ele>
        <time>2022-02-23T10:34:55Z</time>
      </trkpt>
      <trkpt lat="47.24024" lon="0.14896">
        <ele>39.44</ele>
        <time>2022-02-23T10:35:03Z</time>
      </trkpt>
      <trkpt lat="47.24023" lon="0.14912">
        <ele>39.44</ele>
        <time>2022-02-23T10:35:11Z</time>
      </trkpt>
      <trkpt lat="47.24022" lon="0.14925">
        <ele>39.78</ele>
        <time>2022-02-23T10:35:18Z</time>
      </trkpt>
      <trkpt lat="47.2402" lon="0.1494">
        <ele>39.69</ele>
        <time>2022-02-23T10:35:27Z</time>
      </trkpt>
      <trkpt lat="47.24015" lon="0.14954">
        <ele>39.84</ele>
        <time>2022-02-23T10:35:36Z</time>
      </trkpt>
      <trkpt lat="47.24012" lon="0.14967">
        <ele>40.13</ele>
        <time>2022-02-23T10:35:45Z</time>
      </trkpt>
      <trkpt lat="47.2401" lon="0.14981">
        <ele>40.06</ele>
        <time>2022-02-23T10:35:55Z</time>
      </trkpt>
      <trkpt lat="47.24006" lon="0.14999">
        <ele>39.84</ele>
        <time>2022-02-23T10:36:08Z</time>
      </trkpt>
      <trkpt lat="47.24002" lon="0.15015">
        <ele>39.9</ele>
        <time>2022-02-23T10:36:16Z</time>
      </trkpt>
      <trkpt lat="47.24" lon="0.15031">
        <ele>39.81</ele>
        <time>2022-02-23T10:36:25Z</time>
      </trkpt>
      <trkpt lat="47.23997" lon="0.15046">
        <ele>39.75</ele>
        <time>2022-02-23T10:36:33Z</time>
      </trkpt>
      <trkpt lat="47.23994" lon="0.1506">
        <ele>40.09</ele>
        <time>2022-02-23T10:36:41Z</time>
      </trkpt>
      <trkpt lat="47.23993" lon="0.15076">
        <ele>40.16</ele>
        <time>2022-02-23T10:36:50Z</time>
      </trkpt>
      <trkpt lat="47.2399" lon="0.15091">
        <ele>40.03</ele>
        <time>2022-02-23T10:36:59Z</time>
      </trkpt>
      <trkpt lat="47.23989" lon="0.15105">
        <ele>40.09</ele>
        <time>2022-02-23T10:37:07Z</time>
      </trkpt>
      <trkpt lat="47.23989" lon="0.15121">
        <ele>40.17</ele>
        <time>2022-02-23T10:37:15Z</time>
      </trkpt>
      <trkpt lat="47.23989" lon="0.15137">
        <ele>40.36</ele>
        <time>2022-02-23T10:37:23Z</time>
      </trkpt>
      <trkpt lat="47.23991" lon="0.15152">
        <ele>40.54</ele>
        <time>2022-02-23T10:37:31Z</time>
      </trkpt>
      <trkpt lat="47.23992" lon="0.15165">
        <ele>40.39</ele>
        <time>2022-02-23T10:37:38Z</time>
      </trkpt>
      <trkpt lat="47.23995" lon="0.15178">
        <ele>40.3</ele>
        <time>2022-02-23T10:37:45Z</time>
      </trkpt>
      <trkpt lat="47.23997" lon="0.15194">
        <ele>40.58</ele>
        <time>2022-02-23T10:37:55Z</time>
      </trkpt>
      <trkpt lat="47.24001" lon="0.15208">
        <ele>40.62</ele>
        <time>2022-02-23T10:38:02Z</time>
      </trkpt>
      <trkpt lat="47.24003" lon="0.15222">
        <ele>40.49</ele>
        <time>2022-02-23T10:38:09Z</time>
      </trkpt>
      <trkpt lat="47.24007" lon="0.15234">
        <ele>40.38</ele>
        <time>2022-02-23T10:38:15Z</time>
      </trkpt>
      <trkpt lat="47.24011" lon="0.15245">
        <ele>40.43</ele>
        <time>2022-02-23T10:38:22Z</time>
      </trkpt>
      <trkpt lat="47.24013" lon="0.15258">
        <ele>40.56</ele>
        <time>2022-02-23T10:38:30Z</time>
      </trkpt>
      <trkpt lat="47.24017" lon="0.1527">
        <ele>40.58</ele>
        <time>2022-02-23T10:38:37Z</time>
      </trkpt>
      <trkpt lat="47.24021" lon="0.15281">
        <ele>40.53</ele>
        <time>2022-02-23T10:38:43Z</time>
      </trkpt>
      <trkpt lat="47.24024" lon="0.15296">
        <ele>40.39</ele>
        <time>2022-02-23T10:38:50Z</time>
      </trkpt>
      <trkpt lat="47.24027" lon="0.1531">
        <ele>40.58</ele>
        <time>2022-02-23T10:38:58Z</time>
      </trkpt>
      <trkpt lat="47.24031" lon="0.15321">
        <ele>40.65</ele>
        <time>2022-02-23T10:39:05Z</time>
      </trkpt>
      <trkpt lat="47.24036" lon="0.15332">
        <ele>40.61</ele>
        <time>2022-02-23T10:39:12Z</time>
      </trkpt>
      <trkpt lat="47.24039" lon="0.15345">
        <ele>40.58</ele>
        <time>2022-02-23T10:39:19Z</time>
      </trkpt>
      <trkpt lat="47.24043" lon="0.15357">
        <ele>40.7</ele>
        <time>2022-02-23T10:39:26Z</time>
      </trkpt>
      <trkpt lat="47.24045" lon="0.15372">
        <ele>40.53</ele>
        <time>2022-02-23T10:39:33Z</time>
      </trkpt>
      <trkpt lat="47.24048" lon="0.15385">
        <ele>40.42</ele>
        <time>2022-02-23T10:39:41Z</time>
      </trkpt>
      <trkpt lat="47.2405" lon="0.15398">
        <ele>40.56</ele>
        <time>2022-02-23T10:39:48Z</time>
      </trkpt>
      <trkpt lat="47.24051" lon="0.15412">
        <ele>40.33</ele>
        <time>2022-02-23T10:39:56Z</time>
      </trkpt>
      <trkpt lat="47.2405" lon="0.15425">
        <ele>40.45</ele>
        <time>2022-02-23T10:40:03Z</time>
      </trkpt>
      <trkpt lat="47.24049" lon="0.15438">
        <ele>40.46</ele>
        <time>2022-02-23T10:40:10Z</time>
      </trkpt>
      <trkpt lat="47.24047" lon="0.15451">
        <ele>40.42</ele>
        <time>2022-02-23T10:40:16Z</time>
      </trkpt>
      <trkpt lat="47.24042" lon="0.15463">
        <ele>40.45</ele>
        <time>2022-02-23T10:40:23Z</time>
      </trkpt>
      <trkpt lat="47.24038" lon="0.15477">
        <ele>40.39</ele>
        <time>2022-02-23T10:40:32Z</time>
      </trkpt>
      <trkpt lat="47.24032" lon="0.15489">
        <ele>40.15</ele>
        <time>2022-02-23T10:40:40Z</time>
      </trkpt>
      <trkpt lat="47.24026" lon="0.155">
        <ele>40.12</ele>
        <time>2022-02-23T10:40:48Z</time>
      </trkpt>
      <trkpt lat="47.2402" lon="0.15512">
        <ele>40.18</ele>
        <time>2022-02-23T10:40:56Z</time>
      </trkpt>
      <trkpt lat="47.24015" lon="0.15525">
        <ele>40.14</ele>
        <time>2022-02-23T10:41:03Z</time>
      </trkpt>
      <trkpt lat="47.24011" lon="0.15536">
        <ele>40.04</ele>
        <time>2022-02-23T10:41:10Z</time>
      </trkpt>
      <trkpt lat="47.24006" lon="0.1555">
        <ele>39.9</ele>
        <time>2022-02-23T10:41:18Z</time>
      </trkpt>
      <trkpt lat="47.24004" lon="0.15564">
        <ele>39.78</ele>
        <time>2022-02-23T10:41:25Z</time>
      </trkpt>
      <trkpt lat="47.24002" lon="0.15577">
        <ele>39.72</ele>
        <time>2022-02-23T10:41:32Z</time>
      </trkpt>
      <trkpt lat="47.24001" lon="0.1559">
        <ele>39.61</ele>
        <time>2022-02-23T10:41:40Z</time>
      </trkpt>
      <trkpt lat="47.24" lon="0.15603">
        <ele>39.45</ele>
        <time>2022-02-23T10:41:47Z</time>
      </trkpt>
      <trkpt lat="47.24001" lon="0.15618">
        <ele>39.68</ele>
        <time>2022-02-23T10:41:55Z</time>
      </trkpt>
      <trkpt lat="47.24001" lon="0.15633">
        <ele>39.81</ele>
        <time>2022-02-23T10:42:02Z</time>
      </trkpt>
      <trkpt lat="47.24002" lon="0.15647">
        <ele>39.74</ele>
        <time>2022-02-23T10:42:10Z</time>
      </trkpt>
      <trkpt lat="47.24004" lon="0.15661">
        <ele>39.64</ele>
        <time>2022-02-23T10:42:18Z</time>
      </trkpt>
      <trkpt lat="47.24007" lon="0.15674">
        <ele>39.73</ele>
        <time>2022-02-23T10:42:27Z</time>
      </trkpt>
      <trkpt lat="47.2401" lon="0.15688">
        <ele>39.78</ele>
        <time>2022-02-23T10:42:34Z</time>
      </trkpt>
      <trkpt lat="47.24014" lon="0.15701">
        <ele>39.73</ele>
        <time>2022-02-23T10:42:42Z</time>
      </trkpt>
      <trkpt lat="47.24017" lon="0.15712">
        <ele>39.87</ele>
        <time>2022-02-23T10:42:49Z</time>
      </trkpt>
      <trkpt lat="47.24022" lon="0.15723">
        <ele>39.67</ele>
        <time>2022-02-23T10:42:57Z</time>
      </trkpt>
      <trkpt lat="47.24025" lon="0.15736">
        <ele>39.65</ele>
        <time>2022-02-23T10:43:06Z</time>
      </trkpt>
      <trkpt lat="47.24027" lon="0.15752">
        <ele>39.87</ele>
        <time>2022-02-23T10:43:16Z</time>
      </trkpt>
      <trkpt lat="47.24027" lon="0.15767">
        <ele>39.73</ele>
        <time>2022-02-23T10:43:25Z</time>
      </trkpt>
      <trkpt lat="47.24028" lon="0.1578">
        <ele>39.94</ele>
        <time>2022-02-23T10:43:58Z</time>
      </trkpt>
      <trkpt lat="47.24027" lon="0.15796">
        <ele>39.84</ele>
        <time>2022-02-23T10:44:06Z</time>
      </trkpt>
      <trkpt lat="47.24025" lon="0.15809">
        <ele>39.92</ele>
        <time>2022-02-23T10:44:15Z</time>
      </trkpt>
      <trkpt lat="47.24024" lon="0.15826">
        <ele>39.72</ele>
        <time>2022-02-23T10:44:25Z</time>
      </trkpt>
      <trkpt lat="47.24026" lon="0.1584">
        <ele>39.63</ele>
        <time>2022-02-23T10:44:34Z</time>
      </trkpt>
      <trkpt lat="47.24032" lon="0.15854">
        <ele>39.27</ele>
        <time>2022-02-23T10:44:45Z</time>
      </trkpt>
      <trkpt lat="47.24038" lon="0.15867">
        <ele>39.19</ele>
        <time>2022-02-23T10:44:54Z</time>
      </trkpt>
      <trkpt lat="47.24043" lon="0.15883">
        <ele>39.54</ele>
        <time>2022-02-23T10:45:03Z</time>
      </trkpt>
      <trkpt lat="47.24043" lon="0.15899">
        <ele>39.48</ele>
        <time>2022-02-23T10:45:12Z</time>
      </trkpt>
      <trkpt lat="47.24039" lon="0.15912">
        <ele>39.79</ele>
        <time>2022-02-23T10:45:23Z</time>
      </trkpt>
      <trkpt lat="47.24037" lon="0.15923">
        <ele>39.86</ele>
        <time>2022-02-23T10:45:36Z</time>
      </trkpt>
      <trkpt lat="47.24032" lon="0.15935">
        <ele>39.96</ele>
        <time>2022-02-23T10:45:47Z</time>
      </trkpt>
      <trkpt lat="47.24026" lon="0.15949">
        <ele>39.74</ele>
        <time>2022-02-23T10:45:58Z</time>
      </trkpt>
      <trkpt lat="47.24024" lon="0.15964">
        <ele>39.42</ele>
        <time>2022-02-23T10:46:11Z</time>
      </trkpt>
      <trkpt lat="47.24024" lon="0.15985">
        <ele>39.27</ele>
        <time>2022-02-23T10:46:21Z</time>
      </trkpt>
      <trkpt lat="47.24027" lon="0.15998">
        <ele>39.49</ele>
        <time>2022-02-23T10:46:31Z</time>
      </trkpt>
      <trkpt lat="47.24028" lon="0.16016">
        <ele>39.65</ele>
        <time>2022-02-23T10:46:39Z</time>
      </trkpt>
      <trkpt lat="47.24029" lon="0.16034">
        <ele>40.02</ele>
        <time>2022-02-23T10:46:48Z</time>
      </trkpt>
      <trkpt lat="47.24029" lon="0.16057">
        <ele>40.73</ele>
        <time>2022-02-23T10:46:56Z</time>
      </trkpt>
      <trkpt lat="47.24035" lon="0.16068">
        <ele>41.02</ele>
        <time>2022-02-23T10:47:04Z</time>
      </trkpt>
      <trkpt lat="47.24043" lon="0.16073">
        <ele>41.4</ele>
        <time>2022-02-23T10:47:12Z</time>
      </trkpt>
      <trkpt lat="47.2405" lon="0.16078">
        <ele>41.75</ele>
        <time>2022-02-23T10:47:21Z</time>
      </trkpt>
      <trkpt lat="47.2406" lon="0.1608">
        <ele>42.41</ele>
        <time>2022-02-23T10:47:31Z</time>
      </trkpt>
      <trkpt lat="47.24072" lon="0.16085">
        <ele>42.82</ele>
        <time>2022-02-23T10:47:41Z</time>
      </trkpt>
      <trkpt lat="47.24083" lon="0.16091">
        <ele>43.06</ele>
        <time>2022-02-23T10:47:51Z</time>
      </trkpt>
      <trkpt lat="47.24092" lon="0.16101">
        <ele>43.12</ele>
        <time>2022-02-23T10:48:02Z</time>
      </trkpt>
      <trkpt lat="47.24102" lon="0.16107">
        <ele>42.89</ele>
        <time>2022-02-23T10:48:12Z</time>
      </trkpt>
      <trkpt lat="47.24111" lon="0.16113">
        <ele>42.98</ele>
        <time>2022-02-23T10:48:21Z</time>
      </trkpt>
      <trkpt lat="47.2412" lon="0.16117">
        <ele>42.97</ele>
        <time>2022-02-23T10:48:29Z</time>
      </trkpt>
      <trkpt lat="47.24131" lon="0.16125">
        <ele>43</ele>
        <time>2022-02-23T10:48:38Z</time>
      </trkpt>
      <trkpt lat="47.24142" lon="0.16131">
        <ele>42.94</ele>
        <time>2022-02-23T10:48:47Z</time>
      </trkpt>
      <trkpt lat="47.24152" lon="0.16136">
        <ele>42.76</ele>
        <time>2022-02-23T10:48:58Z</time>
      </trkpt>
      <trkpt lat="47.24163" lon="0.16142">
        <ele>42.88</ele>
        <time>2022-02-23T10:49:08Z</time>
      </trkpt>
      <trkpt lat="47.24174" lon="0.16148">
        <ele>43.1</ele>
        <time>2022-02-23T10:49:23Z</time>
      </trkpt>
      <trkpt lat="47.24178" lon="0.16166">
        <ele>43.97</ele>
        <time>2022-02-23T10:49:42Z</time>
      </trkpt>
      <trkpt lat="47.24185" lon="0.16177">
        <ele>44.35</ele>
        <time>2022-02-23T10:50:07Z</time>
      </trkpt>
      <trkpt lat="47.24193" lon="0.16183">
        <ele>44.64</ele>
        <time>2022-02-23T10:50:27Z</time>
      </trkpt>
      <trkpt lat="47.24205" lon="0.16183">
        <ele>44.31</ele>
        <time>2022-02-23T10:50:39Z</time>
      </trkpt>
      <trkpt lat="47.24215" lon="0.1618">
        <ele>44.45</ele>
        <time>2022-02-23T10:50:49Z</time>
      </trkpt>
      <trkpt lat="47.24225" lon="0.16179">
        <ele>44.46</ele>
        <time>2022-02-23T10:51:00Z</time>
      </trkpt>
      <trkpt lat="47.24231" lon="0.16175">
        <ele>44.6</ele>
        <time>2022-02-23T10:51:41Z</time>
      </trkpt>
      <trkpt lat="47.24239" lon="0.16177">
        <ele>43.95</ele>
        <time>2022-02-23T10:52:25Z</time>
      </trkpt>
      <trkpt lat="47.24245" lon="0.16186">
        <ele>43.73</ele>
        <time>2022-02-23T10:52:59Z</time>
      </trkpt>
      <trkpt lat="47.24255" lon="0.16189">
        <ele>43.16</ele>
        <time>2022-02-23T10:53:09Z</time>
      </trkpt>
      <trkpt lat="47.24263" lon="0.16191">
        <ele>42.51</ele>
        <time>2022-02-23T10:53:40Z</time>
      </trkpt>
      <trkpt lat="47.24265" lon="0.16203">
        <ele>41.91</ele>
        <time>2022-02-23T10:54:03Z</time>
      </trkpt>
      <trkpt lat="47.24271" lon="0.16206">
        <ele>41.42</ele>
        <time>2022-02-23T10:54:34Z</time>
      </trkpt>
      <trkpt lat="47.24282" lon="0.16204">
        <ele>41.41</ele>
        <time>2022-02-23T10:54:43Z</time>
      </trkpt>
      <trkpt lat="47.2429" lon="0.16203">
        <ele>41.14</ele>
        <time>2022-02-23T10:54:53Z</time>
      </trkpt>
      <trkpt lat="47.24297" lon="0.1621">
        <ele>40.44</ele>
        <time>2022-02-23T10:55:09Z</time>
      </trkpt>
      <trkpt lat="47.24309" lon="0.16212">
        <ele>39.86</ele>
        <time>2022-02-23T10:55:24Z</time>
      </trkpt>
      <trkpt lat="47.24321" lon="0.16212">
        <ele>39.77</ele>
        <time>2022-02-23T10:55:32Z</time>
      </trkpt>
      <trkpt lat="47.24331" lon="0.16214">
        <ele>39.82</ele>
        <time>2022-02-23T10:55:43Z</time>
      </trkpt>
      <trkpt lat="47.24341" lon="0.16215">
        <ele>39.96</ele>
        <time>2022-02-23T10:55:50Z</time>
      </trkpt>
      <trkpt lat="47.24351" lon="0.16216">
        <ele>39.73</ele>
        <time>2022-02-23T10:55:58Z</time>
      </trkpt>
      <trkpt lat="47.2436" lon="0.16219">
        <ele>39.63</ele>
        <time>2022-02-23T10:56:06Z</time>
      </trkpt>
      <trkpt lat="47.24371" lon="0.1622">
        <ele>39.64</ele>
        <time>2022-02-23T10:56:14Z</time>
      </trkpt>
      <trkpt lat="47.24382" lon="0.1622">
        <ele>39.62</ele>
        <time>2022-02-23T10:56:21Z</time>
      </trkpt>
      <trkpt lat="47.24391" lon="0.16221">
        <ele>39.67</ele>
        <time>2022-02-23T10:56:29Z</time>
      </trkpt>
      <trkpt lat="47.24401" lon="0.16222">
        <ele>39.71</ele>
        <time>2022-02-23T10:56:37Z</time>
      </trkpt>
      <trkpt lat="47.24412" lon="0.16224">
        <ele>39.47</ele>
        <time>2022-02-23T10:56:45Z</time>
      </trkpt>
      <trkpt lat="47.24422" lon="0.16227">
        <ele>39.68</ele>
        <time>2022-02-23T10:56:53Z</time>
      </trkpt>
      <trkpt lat="47.24432" lon="0.16229">
        <ele>39.78</ele>
        <time>2022-02-23T10:57:02Z</time>
      </trkpt>
      <trkpt lat="47.24442" lon="0.16231">
        <ele>39.64</ele>
        <time>2022-02-23T10:57:09Z</time>
      </trkpt>
      <trkpt lat="47.24451" lon="0.16232">
        <ele>39.64</ele>
        <time>2022-02-23T10:57:17Z</time>
      </trkpt>
      <trkpt lat="47.2446" lon="0.16236">
        <ele>39.5</ele>
        <time>2022-02-23T10:57:25Z</time>
      </trkpt>
      <trkpt lat="47.24471" lon="0.16234">
        <ele>39.55</ele>
        <time>2022-02-23T10:57:32Z</time>
      </trkpt>
      <trkpt lat="47.24481" lon="0.16236">
        <ele>39.42</ele>
        <time>2022-02-23T10:57:39Z</time>
      </trkpt>
      <trkpt lat="47.2449" lon="0.16237">
        <ele>39.31</ele>
        <time>2022-02-23T10:57:46Z</time>
      </trkpt>
      <trkpt lat="47.24498" lon="0.1624">
        <ele>39.39</ele>
        <time>2022-02-23T10:57:53Z</time>
      </trkpt>
      <trkpt lat="47.24509" lon="0.16244">
        <ele>39.34</ele>
        <time>2022-02-23T10:58:01Z</time>
      </trkpt>
      <trkpt lat="47.24519" lon="0.16245">
        <ele>39.44</ele>
        <time>2022-02-23T10:58:08Z</time>
      </trkpt>
      <trkpt lat="47.24528" lon="0.16246">
        <ele>39.54</ele>
        <time>2022-02-23T10:58:15Z</time>
      </trkpt>
      <trkpt lat="47.24538" lon="0.16249">
        <ele>39.4</ele>
        <time>2022-02-23T10:58:24Z</time>
      </trkpt>
      <trkpt lat="47.24549" lon="0.16253">
        <ele>39.19</ele>
        <time>2022-02-23T10:58:32Z</time>
      </trkpt>
      <trkpt lat="47.24558" lon="0.16254">
        <ele>39.66</ele>
        <time>2022-02-23T10:58:39Z</time>
      </trkpt>
      <trkpt lat="47.24567" lon="0.16256">
        <ele>39.36</ele>
        <time>2022-02-23T10:58:45Z</time>
      </trkpt>
      <trkpt lat="47.24577" lon="0.1626">
        <ele>39.22</ele>
        <time>2022-02-23T10:58:56Z</time>
      </trkpt>
      <trkpt lat="47.24587" lon="0.16258">
        <ele>39.37</ele>
        <time>2022-02-23T10:59:06Z</time>
      </trkpt>
      <trkpt lat="47.24597" lon="0.16259">
        <ele>39.35</ele>
        <time>2022-02-23T10:59:16Z</time>
      </trkpt>
      <trkpt lat="47.24609" lon="0.16262">
        <ele>39.32</ele>
        <time>2022-02-23T10:59:24Z</time>
      </trkpt>
      <trkpt lat="47.24619" lon="0.16261">
        <ele>39.19</ele>
        <time>2022-02-23T10:59:32Z</time>
      </trkpt>
      <trkpt lat="47.24624" lon="0.16278">
        <ele>39.25</ele>
        <time>2022-02-23T10:59:40Z</time>
      </trkpt>
      <trkpt lat="47.24625" lon="0.16292">
        <ele>38.87</ele>
        <time>2022-02-23T10:59:50Z</time>
      </trkpt>
      <trkpt lat="47.24625" lon="0.1631">
        <ele>38.89</ele>
        <time>2022-02-23T11:00:01Z</time>
      </trkpt>
      <trkpt lat="47.24623" lon="0.16327">
        <ele>39.01</ele>
        <time>2022-02-23T11:00:10Z</time>
      </trkpt>
      <trkpt lat="47.24623" lon="0.16344">
        <ele>39.01</ele>
        <time>2022-02-23T11:00:19Z</time>
      </trkpt>
      <trkpt lat="47.24624" lon="0.16361">
        <ele>38.86</ele>
        <time>2022-02-23T11:00:28Z</time>
      </trkpt>
      <trkpt lat="47.24628" lon="0.16376">
        <ele>38.84</ele>
        <time>2022-02-23T11:00:36Z</time>
      </trkpt>
      <trkpt lat="47.24632" lon="0.1639">
        <ele>38.61</ele>
        <time>2022-02-23T11:00:48Z</time>
      </trkpt>
      <trkpt lat="47.24636" lon="0.16402">
        <ele>38.67</ele>
        <time>2022-02-23T11:00:57Z</time>
      </trkpt>
      <trkpt lat="47.24639" lon="0.16415">
        <ele>38.68</ele>
        <time>2022-02-23T11:01:07Z</time>
      </trkpt>
      <trkpt lat="47.24642" lon="0.16424">
        <ele>38.72</ele>
        <time>2022-02-23T11:01:46Z</time>
      </trkpt>
      <trkpt lat="47.24643" lon="0.16436">
        <ele>39.03</ele>
        <time>2022-02-23T11:02:33Z</time>
      </trkpt>
      <trkpt lat="47.24642" lon="0.16453">
        <ele>38.75</ele>
        <time>2022-02-23T11:02:43Z</time>
      </trkpt>
      <trkpt lat="47.24639" lon="0.16468">
        <ele>38.89</ele>
        <time>2022-02-23T11:02:52Z</time>
      </trkpt>
      <trkpt lat="47.24636" lon="0.16484">
        <ele>38.99</ele>
        <time>2022-02-23T11:03:05Z</time>
      </trkpt>
      <trkpt lat="47.24633" lon="0.16498">
        <ele>39.06</ele>
        <time>2022-02-23T11:03:13Z</time>
      </trkpt>
      <trkpt lat="47.2463" lon="0.16513">
        <ele>38.86</ele>
        <time>2022-02-23T11:03:22Z</time>
      </trkpt>
      <trkpt lat="47.24628" lon="0.16526">
        <ele>38.75</ele>
        <time>2022-02-23T11:03:29Z</time>
      </trkpt>
      <trkpt lat="47.24625" lon="0.16541">
        <ele>38.93</ele>
        <time>2022-02-23T11:03:37Z</time>
      </trkpt>
      <trkpt lat="47.24623" lon="0.16555">
        <ele>39.13</ele>
        <time>2022-02-23T11:03:44Z</time>
      </trkpt>
      <trkpt lat="47.24616" lon="0.16562">
        <ele>38.99</ele>
        <time>2022-02-23T11:03:56Z</time>
      </trkpt>
      <trkpt lat="47.24604" lon="0.1656">
        <ele>39.29</ele>
        <time>2022-02-23T11:04:05Z</time>
      </trkpt>
      <trkpt lat="47.24594" lon="0.16556">
        <ele>39.6</ele>
        <time>2022-02-23T11:04:13Z</time>
      </trkpt>
      <trkpt lat="47.24584" lon="0.16552">
        <ele>39.68</ele>
        <time>2022-02-23T11:04:22Z</time>
      </trkpt>
      <trkpt lat="47.24574" lon="0.1655">
        <ele>39.82</ele>
        <time>2022-02-23T11:04:44Z</time>
      </trkpt>
      <trkpt lat="47.24564" lon="0.16546">
        <ele>39.57</ele>
        <time>2022-02-23T11:05:08Z</time>
      </trkpt>
      <trkpt lat="47.24554" lon="0.16543">
        <ele>39.73</ele>
        <time>2022-02-23T11:05:16Z</time>
      </trkpt>
      <trkpt lat="47.24544" lon="0.16541">
        <ele>39.87</ele>
        <time>2022-02-23T11:05:24Z</time>
      </trkpt>
      <trkpt lat="47.24534" lon="0.16538">
        <ele>39.67</ele>
        <time>2022-02-23T11:05:32Z</time>
      </trkpt>
      <trkpt lat="47.24524" lon="0.16538">
        <ele>39.52</ele>
        <time>2022-02-23T11:05:39Z</time>
      </trkpt>
      <trkpt lat="47.24514" lon="0.16535">
        <ele>39.45</ele>
        <time>2022-02-23T11:05:46Z</time>
      </trkpt>
      <trkpt lat="47.24504" lon="0.16534">
        <ele>39.56</ele>
        <time>2022-02-23T11:05:54Z</time>
      </trkpt>
      <trkpt lat="47.24494" lon="0.16534">
        <ele>39.87</ele>
        <time>2022-02-23T11:06:02Z</time>
      </trkpt>
      <trkpt lat="47.24483" lon="0.16534">
        <ele>39.87</ele>
        <time>2022-02-23T11:06:09Z</time>
      </trkpt>
      <trkpt lat="47.24473" lon="0.16533">
        <ele>39.76</ele>
        <time>2022-02-23T11:06:17Z</time>
      </trkpt>
      <trkpt lat="47.24463" lon="0.16533">
        <ele>39.59</ele>
        <time>2022-02-23T11:06:24Z</time>
      </trkpt>
      <trkpt lat="47.24454" lon="0.16536">
        <ele>39.73</ele>
        <time>2022-02-23T11:06:31Z</time>
      </trkpt>
      <trkpt lat="47.2445" lon="0.16547">
        <ele>40</ele>
        <time>2022-02-23T11:06:38Z</time>
      </trkpt>
      <trkpt lat="47.2445" lon="0.1656">
        <ele>39.69</ele>
        <time>2022-02-23T11:06:45Z</time>
      </trkpt>
      <trkpt lat="47.24449" lon="0.16574">
        <ele>39.72</ele>
        <time>2022-02-23T11:06:53Z</time>
      </trkpt>
      <trkpt lat="47.24447" lon="0.16588">
        <ele>39.73</ele>
        <time>2022-02-23T11:07:01Z</time>
      </trkpt>
      <trkpt lat="47.24445" lon="0.16604">
        <ele>39.54</ele>
        <time>2022-02-23T11:07:10Z</time>
      </trkpt>
      <trkpt lat="47.24443" lon="0.16619">
        <ele>39.74</ele>
        <time>2022-02-23T11:07:18Z</time>
      </trkpt>
      <trkpt lat="47.24441" lon="0.16635">
        <ele>39.73</ele>
        <time>2022-02-23T11:07:26Z</time>
      </trkpt>
      <trkpt lat="47.24441" lon="0.1665">
        <ele>39.8</ele>
        <time>2022-02-23T11:07:35Z</time>
      </trkpt>
      <trkpt lat="47.24438" lon="0.16666">
        <ele>39.83</ele>
        <time>2022-02-23T11:07:43Z</time>
      </trkpt>
      <trkpt lat="47.24434" lon="0.16679">
        <ele>39.63</ele>
        <time>2022-02-23T11:07:51Z</time>
      </trkpt>
      <trkpt lat="47.2443" lon="0.16695">
        <ele>39.77</ele>
        <time>2022-02-23T11:07:59Z</time>
      </trkpt>
      <trkpt lat="47.24426" lon="0.16709">
        <ele>39.82</ele>
        <time>2022-02-23T11:08:06Z</time>
      </trkpt>
      <trkpt lat="47.24424" lon="0.16724">
        <ele>39.91</ele>
        <time>2022-02-23T11:08:14Z</time>
      </trkpt>
      <trkpt lat="47.24421" lon="0.16738">
        <ele>39.84</ele>
        <time>2022-02-23T11:08:21Z</time>
      </trkpt>
      <trkpt lat="47.24419" lon="0.16753">
        <ele>39.93</ele>
        <time>2022-02-23T11:08:28Z</time>
      </trkpt>
      <trkpt lat="47.24417" lon="0.16768">
        <ele>40.01</ele>
        <time>2022-02-23T11:08:35Z</time>
      </trkpt>
      <trkpt lat="47.24416" lon="0.16784">
        <ele>40.11</ele>
        <time>2022-02-23T11:08:43Z</time>
      </trkpt>
      <trkpt lat="47.24413" lon="0.16799">
        <ele>40.18</ele>
        <time>2022-02-23T11:08:54Z</time>
      </trkpt>
      <trkpt lat="47.24411" lon="0.16814">
        <ele>40.02</ele>
        <time>2022-02-23T11:09:01Z</time>
      </trkpt>
      <trkpt lat="47.24409" lon="0.16828">
        <ele>39.89</ele>
        <time>2022-02-23T11:09:10Z</time>
      </trkpt>
      <trkpt lat="47.24408" lon="0.16843">
        <ele>39.93</ele>
        <time>2022-02-23T11:09:18Z</time>
      </trkpt>
      <trkpt lat="47.24406" lon="0.16858">
        <ele>39.85</ele>
        <time>2022-02-23T11:09:25Z</time>
      </trkpt>
      <trkpt lat="47.24405" lon="0.16873">
        <ele>39.75</ele>
        <time>2022-02-23T11:09:32Z</time>
      </trkpt>
      <trkpt lat="47.24402" lon="0.16888">
        <ele>39.75</ele>
        <time>2022-02-23T11:09:40Z</time>
      </trkpt>
      <trkpt lat="47.24399" lon="0.16904">
        <ele>39.8</ele>
        <time>2022-02-23T11:09:48Z</time>
      </trkpt>
      <trkpt lat="47.24398" lon="0.16918">
        <ele>39.87</ele>
        <time>2022-02-23T11:09:55Z</time>
      </trkpt>
      <trkpt lat="47.24395" lon="0.16932">
        <ele>39.98</ele>
        <time>2022-02-23T11:10:03Z</time>
      </trkpt>
      <trkpt lat="47.24393" lon="0.16945">
        <ele>39.77</ele>
        <time>2022-02-23T11:10:10Z</time>
      </trkpt>
      <trkpt lat="47.24391" lon="0.1696">
        <ele>40.02</ele>
        <time>2022-02-23T11:10:18Z</time>
      </trkpt>
      <trkpt lat="47.24389" lon="0.16975">
        <ele>40.18</ele>
        <time>2022-02-23T11:10:26Z</time>
      </trkpt>
      <trkpt lat="47.24387" lon="0.16989">
        <ele>40.3</ele>
        <time>2022-02-23T11:10:33Z</time>
      </trkpt>
      <trkpt lat="47.24384" lon="0.17003">
        <ele>40.41</ele>
        <time>2022-02-23T11:10:40Z</time>
      </trkpt>
      <trkpt lat="47.24382" lon="0.17018">
        <ele>40.29</ele>
        <time>2022-02-23T11:10:48Z</time>
      </trkpt>
      <trkpt lat="47.2438" lon="0.17032">
        <ele>40.36</ele>
        <time>2022-02-23T11:10:56Z</time>
      </trkpt>
      <trkpt lat="47.24379" lon="0.17047">
        <ele>40.36</ele>
        <time>2022-02-23T11:11:04Z</time>
      </trkpt>
      <trkpt lat="47.24383" lon="0.1706">
        <ele>40.43</ele>
        <time>2022-02-23T11:11:12Z</time>
      </trkpt>
      <trkpt lat="47.24391" lon="0.17066">
        <ele>40.49</ele>
        <time>2022-02-23T11:11:19Z</time>
      </trkpt>
      <trkpt lat="47.24399" lon="0.17072">
        <ele>40.66</ele>
        <time>2022-02-23T11:11:27Z</time>
      </trkpt>
      <trkpt lat="47.24407" lon="0.17078">
        <ele>40.58</ele>
        <time>2022-02-23T11:11:35Z</time>
      </trkpt>
      <trkpt lat="47.24416" lon="0.17086">
        <ele>40.56</ele>
        <time>2022-02-23T11:11:43Z</time>
      </trkpt>
      <trkpt lat="47.24424" lon="0.17091">
        <ele>40.57</ele>
        <time>2022-02-23T11:11:50Z</time>
      </trkpt>
      <trkpt lat="47.24433" lon="0.17101">
        <ele>40.33</ele>
        <time>2022-02-23T11:11:58Z</time>
      </trkpt>
      <trkpt lat="47.24438" lon="0.17115">
        <ele>40.24</ele>
        <time>2022-02-23T11:12:05Z</time>
      </trkpt>
      <trkpt lat="47.24441" lon="0.1713">
        <ele>40.39</ele>
        <time>2022-02-23T11:12:13Z</time>
      </trkpt>
      <trkpt lat="47.2444" lon="0.17144">
        <ele>40.74</ele>
        <time>2022-02-23T11:12:20Z</time>
      </trkpt>
      <trkpt lat="47.24438" lon="0.1716">
        <ele>40.67</ele>
        <time>2022-02-23T11:12:27Z</time>
      </trkpt>
      <trkpt lat="47.24436" lon="0.17174">
        <ele>40.57</ele>
        <time>2022-02-23T11:12:34Z</time>
      </trkpt>
      <trkpt lat="47.24434" lon="0.17188">
        <ele>40.28</ele>
        <time>2022-02-23T11:12:41Z</time>
      </trkpt>
      <trkpt lat="47.24432" lon="0.17202">
        <ele>40.18</ele>
        <time>2022-02-23T11:12:48Z</time>
      </trkpt>
      <trkpt lat="47.24431" lon="0.17214">
        <ele>40.25</ele>
        <time>2022-02-23T11:12:55Z</time>
      </trkpt>
      <trkpt lat="47.24428" lon="0.17227">
        <ele>40.3</ele>
        <time>2022-02-23T11:13:02Z</time>
      </trkpt>
      <trkpt lat="47.24425" lon="0.17242">
        <ele>40.29</ele>
        <time>2022-02-23T11:13:09Z</time>
      </trkpt>
      <trkpt lat="47.24421" lon="0.17254">
        <ele>40.23</ele>
        <time>2022-02-23T11:13:15Z</time>
      </trkpt>
      <trkpt lat="47.24417" lon="0.17266">
        <ele>40.41</ele>
        <time>2022-02-23T11:13:23Z</time>
      </trkpt>
      <trkpt lat="47.24412" lon="0.17278">
        <ele>40.23</ele>
        <time>2022-02-23T11:13:30Z</time>
      </trkpt>
      <trkpt lat="47.24408" lon="0.17292">
        <ele>40.04</ele>
        <time>2022-02-23T11:13:37Z</time>
      </trkpt>
      <trkpt lat="47.24405" lon="0.17306">
        <ele>39.86</ele>
        <time>2022-02-23T11:13:45Z</time>
      </trkpt>
      <trkpt lat="47.24399" lon="0.1732">
        <ele>40.2</ele>
        <time>2022-02-23T11:13:54Z</time>
      </trkpt>
      <trkpt lat="47.24396" lon="0.17335">
        <ele>39.89</ele>
        <time>2022-02-23T11:14:02Z</time>
      </trkpt>
      <trkpt lat="47.24393" lon="0.17349">
        <ele>39.87</ele>
        <time>2022-02-23T11:14:09Z</time>
      </trkpt>
      <trkpt lat="47.24389" lon="0.17363">
        <ele>39.73</ele>
        <time>2022-02-23T11:14:16Z</time>
      </trkpt>
      <trkpt lat="47.24383" lon="0.17375">
        <ele>39.59</ele>
        <time>2022-02-23T11:14:24Z</time>
      </trkpt>
      <trkpt lat="47.24377" lon="0.17385">
        <ele>39.64</ele>
        <time>2022-02-23T11:14:31Z</time>
      </trkpt>
      <trkpt lat="47.24368" lon="0.17392">
        <ele>39.64</ele>
        <time>2022-02-23T11:14:39Z</time>
      </trkpt>
      <trkpt lat="47.24359" lon="0.174">
        <ele>39.81</ele>
        <time>2022-02-23T11:14:47Z</time>
      </trkpt>
      <trkpt lat="47.2435" lon="0.17406">
        <ele>40.01</ele>
        <time>2022-02-23T11:14:55Z</time>
      </trkpt>
      <trkpt lat="47.24343" lon="0.17416">
        <ele>39.99</ele>
        <time>2022-02-23T11:15:02Z</time>
      </trkpt>
      <trkpt lat="47.24338" lon="0.17427">
        <ele>40.06</ele>
        <time>2022-02-23T11:15:09Z</time>
      </trkpt>
      <trkpt lat="47.24332" lon="0.1744">
        <ele>39.99</ele>
        <time>2022-02-23T11:15:17Z</time>
      </trkpt>
      <trkpt lat="47.24327" lon="0.17452">
        <ele>39.9</ele>
        <time>2022-02-23T11:15:24Z</time>
      </trkpt>
      <trkpt lat="47.24321" lon="0.17463">
        <ele>39.73</ele>
        <time>2022-02-23T11:15:31Z</time>
      </trkpt>
      <trkpt lat="47.24315" lon="0.17476">
        <ele>39.84</ele>
        <time>2022-02-23T11:15:39Z</time>
      </trkpt>
      <trkpt lat="47.24311" lon="0.17488">
        <ele>39.83</ele>
        <time>2022-02-23T11:15:46Z</time>
      </trkpt>
      <trkpt lat="47.24307" lon="0.17501">
        <ele>39.86</ele>
        <time>2022-02-23T11:15:53Z</time>
      </trkpt>
      <trkpt lat="47.24303" lon="0.17514">
        <ele>39.8</ele>
        <time>2022-02-23T11:16:00Z</time>
      </trkpt>
      <trkpt lat="47.243" lon="0.17527">
        <ele>39.73</ele>
        <time>2022-02-23T11:16:06Z</time>
      </trkpt>
      <trkpt lat="47.24298" lon="0.17541">
        <ele>39.81</ele>
        <time>2022-02-23T11:16:13Z</time>
      </trkpt>
      <trkpt lat="47.24295" lon="0.17555">
        <ele>39.75</ele>
        <time>2022-02-23T11:16:19Z</time>
      </trkpt>
      <trkpt lat="47.24294" lon="0.17569">
        <ele>39.77</ele>
        <time>2022-02-23T11:16:26Z</time>
      </trkpt>
      <trkpt lat="47.24293" lon="0.17584">
        <ele>39.79</ele>
        <time>2022-02-23T11:16:33Z</time>
      </trkpt>
      <trkpt lat="47.24293" lon="0.17599">
        <ele>39.9</ele>
        <time>2022-02-23T11:16:41Z</time>
      </trkpt>
      <trkpt lat="47.24293" lon="0.17612">
        <ele>39.81</ele>
        <time>2022-02-23T11:16:48Z</time>
      </trkpt>
      <trkpt lat="47.24293" lon="0.17625">
        <ele>39.71</ele>
        <time>2022-02-23T11:16:54Z</time>
      </trkpt>
      <trkpt lat="47.24291" lon="0.17638">
        <ele>39.64</ele>
        <time>2022-02-23T11:17:01Z</time>
      </trkpt>
      <trkpt lat="47.24286" lon="0.17648">
        <ele>39.78</ele>
        <time>2022-02-23T11:17:09Z</time>
      </trkpt>
      <trkpt lat="47.24279" lon="0.1766">
        <ele>39.76</ele>
        <time>2022-02-23T11:17:17Z</time>
      </trkpt>
      <trkpt lat="47.24278" lon="0.17675">
        <ele>39.72</ele>
        <time>2022-02-23T11:17:25Z</time>
      </trkpt>
      <trkpt lat="47.24279" lon="0.1769">
        <ele>39.73</ele>
        <time>2022-02-23T11:17:32Z</time>
      </trkpt>
      <trkpt lat="47.24279" lon="0.17705">
        <ele>39.87</ele>
        <time>2022-02-23T11:17:40Z</time>
      </trkpt>
      <trkpt lat="47.24279" lon="0.17721">
        <ele>39.63</ele>
        <time>2022-02-23T11:17:48Z</time>
      </trkpt>
      <trkpt lat="47.24278" lon="0.17734">
        <ele>39.87</ele>
        <time>2022-02-23T11:17:55Z</time>
      </trkpt>
      <trkpt lat="47.24278" lon="0.17748">
        <ele>40.06</ele>
        <time>2022-02-23T11:18:02Z</time>
      </trkpt>
      <trkpt lat="47.24276" lon="0.17763">
        <ele>40.23</ele>
        <time>2022-02-23T11:18:09Z</time>
      </trkpt>
      <trkpt lat="47.24275" lon="0.17777">
        <ele>40.11</ele>
        <time>2022-02-23T11:18:16Z</time>
      </trkpt>
      <trkpt lat="47.24273" lon="0.17792">
        <ele>40.07</ele>
        <time>2022-02-23T11:18:23Z</time>
      </trkpt>
      <trkpt lat="47.2427" lon="0.17806">
        <ele>40.09</ele>
        <time>2022-02-23T11:18:31Z</time>
      </trkpt>
      <trkpt lat="47.24266" lon="0.17821">
        <ele>40.1</ele>
        <time>2022-02-23T11:18:39Z</time>
      </trkpt>
      <trkpt lat="47.24265" lon="0.17835">
        <ele>40.13</ele>
        <time>2022-02-23T11:18:46Z</time>
      </trkpt>
      <trkpt lat="47.24263" lon="0.17849">
        <ele>39.95</ele>
        <time>2022-02-23T11:18:53Z</time>
      </trkpt>
      <trkpt lat="47.24261" lon="0.17863">
        <ele>40.11</ele>
        <time>2022-02-23T11:19:00Z</time>
      </trkpt>
      <trkpt lat="47.2426" lon="0.17878">
        <ele>40.3</ele>
        <time>2022-02-23T11:19:07Z</time>
      </trkpt>
      <trkpt lat="47.24258" lon="0.17892">
        <ele>40.58</ele>
        <time>2022-02-23T11:19:14Z</time>
      </trkpt>
      <trkpt lat="47.24256" lon="0.17907">
        <ele>40.38</ele>
        <time>2022-02-23T11:19:22Z</time>
      </trkpt>
      <trkpt lat="47.24254" lon="0.17921">
        <ele>40.27</ele>
        <time>2022-02-23T11:19:29Z</time>
      </trkpt>
      <trkpt lat="47.24253" lon="0.17936">
        <ele>40.33</ele>
        <time>2022-02-23T11:19:37Z</time>
      </trkpt>
      <trkpt lat="47.24251" lon="0.17951">
        <ele>40.49</ele>
        <time>2022-02-23T11:19:45Z</time>
      </trkpt>
      <trkpt lat="47.24251" lon="0.17966">
        <ele>40.7</ele>
        <time>2022-02-23T11:19:52Z</time>
      </trkpt>
      <trkpt lat="47.2425" lon="0.17979">
        <ele>40.66</ele>
        <time>2022-02-23T11:19:59Z</time>
      </trkpt>
      <trkpt lat="47.2425" lon="0.17993">
        <ele>40.59</ele>
        <time>2022-02-23T11:20:06Z</time>
      </trkpt>
      <trkpt lat="47.24248" lon="0.18009">
        <ele>40.3</ele>
        <time>2022-02-23T11:20:14Z</time>
      </trkpt>
      <trkpt lat="47.24248" lon="0.18024">
        <ele>40.42</ele>
        <time>2022-02-23T11:20:21Z</time>
      </trkpt>
      <trkpt lat="47.24245" lon="0.18038">
        <ele>40.38</ele>
        <time>2022-02-23T11:20:28Z</time>
      </trkpt>
      <trkpt lat="47.24244" lon="0.18054">
        <ele>40.55</ele>
        <time>2022-02-23T11:20:36Z</time>
      </trkpt>
      <trkpt lat="47.24241" lon="0.18068">
        <ele>40.53</ele>
        <time>2022-02-23T11:20:44Z</time>
      </trkpt>
      <trkpt lat="47.24239" lon="0.18082">
        <ele>40.64</ele>
        <time>2022-02-23T11:20:52Z</time>
      </trkpt>
      <trkpt lat="47.24237" lon="0.18096">
        <ele>40.79</ele>
        <time>2022-02-23T11:20:59Z</time>
      </trkpt>
      <trkpt lat="47.24235" lon="0.18109">
        <ele>40.75</ele>
        <time>2022-02-23T11:21:06Z</time>
      </trkpt>
      <trkpt lat="47.24232" lon="0.18123">
        <ele>40.61</ele>
        <time>2022-02-23T11:21:13Z</time>
      </trkpt>
      <trkpt lat="47.2423" lon="0.18137">
        <ele>40.51</ele>
        <time>2022-02-23T11:21:20Z</time>
      </trkpt>
      <trkpt lat="47.24229" lon="0.1815">
        <ele>40.77</ele>
        <time>2022-02-23T11:21:27Z</time>
      </trkpt>
      <trkpt lat="47.24228" lon="0.18163">
        <ele>40.99</ele>
        <time>2022-02-23T11:21:34Z</time>
      </trkpt>
      <trkpt lat="47.24228" lon="0.18177">
        <ele>40.87</ele>
        <time>2022-02-23T11:21:41Z</time>
      </trkpt>
      <trkpt lat="47.24229" lon="0.18192">
        <ele>40.89</ele>
        <time>2022-02-23T11:21:48Z</time>
      </trkpt>
      <trkpt lat="47.2423" lon="0.18205">
        <ele>40.76</ele>
        <time>2022-02-23T11:21:55Z</time>
      </trkpt>
      <trkpt lat="47.24231" lon="0.1822">
        <ele>40.75</ele>
        <time>2022-02-23T11:22:03Z</time>
      </trkpt>
      <trkpt lat="47.24232" lon="0.18233">
        <ele>40.66</ele>
        <time>2022-02-23T11:22:10Z</time>
      </trkpt>
      <trkpt lat="47.24233" lon="0.18247">
        <ele>40.36</ele>
        <time>2022-02-23T11:22:17Z</time>
      </trkpt>
      <trkpt lat="47.24235" lon="0.1826">
        <ele>40.22</ele>
        <time>2022-02-23T11:22:24Z</time>
      </trkpt>
      <trkpt lat="47.24237" lon="0.18273">
        <ele>40.42</ele>
        <time>2022-02-23T11:22:31Z</time>
      </trkpt>
      <trkpt lat="47.24238" lon="0.18287">
        <ele>40.45</ele>
        <time>2022-02-23T11:22:38Z</time>
      </trkpt>
      <trkpt lat="47.2424" lon="0.183">
        <ele>40.64</ele>
        <time>2022-02-23T11:22:45Z</time>
      </trkpt>
      <trkpt lat="47.24242" lon="0.18313">
        <ele>40.74</ele>
        <time>2022-02-23T11:22:52Z</time>
      </trkpt>
      <trkpt lat="47.24244" lon="0.18327">
        <ele>40.79</ele>
        <time>2022-02-23T11:22:59Z</time>
      </trkpt>
      <trkpt lat="47.24246" lon="0.18341">
        <ele>40.68</ele>
        <time>2022-02-23T11:23:07Z</time>
      </trkpt>
      <trkpt lat="47.24248" lon="0.18355">
        <ele>41.23</ele>
        <time>2022-02-23T11:23:15Z</time>
      </trkpt>
      <trkpt lat="47.2425" lon="0.1837">
        <ele>41.24</ele>
        <time>2022-02-23T11:23:23Z</time>
      </trkpt>
      <trkpt lat="47.24252" lon="0.18384">
        <ele>41.09</ele>
        <time>2022-02-23T11:23:30Z</time>
      </trkpt>
      <trkpt lat="47.24254" lon="0.18399">
        <ele>41.01</ele>
        <time>2022-02-23T11:23:38Z</time>
      </trkpt>
      <trkpt lat="47.24256" lon="0.18414">
        <ele>41.06</ele>
        <time>2022-02-23T11:23:46Z</time>
      </trkpt>
      <trkpt lat="47.24257" lon="0.18428">
        <ele>41.14</ele>
        <time>2022-02-23T11:23:53Z</time>
      </trkpt>
      <trkpt lat="47.2426" lon="0.18442">
        <ele>41.23</ele>
        <time>2022-02-23T11:24:00Z</time>
      </trkpt>
      <trkpt lat="47.24262" lon="0.18458">
        <ele>41.02</ele>
        <time>2022-02-23T11:24:08Z</time>
      </trkpt>
      <trkpt lat="47.24263" lon="0.18471">
        <ele>40.99</ele>
        <time>2022-02-23T11:24:15Z</time>
      </trkpt>
      <trkpt lat="47.24265" lon="0.18485">
        <ele>40.94</ele>
        <time>2022-02-23T11:24:22Z</time>
      </trkpt>
      <trkpt lat="47.24266" lon="0.18498">
        <ele>40.84</ele>
        <time>2022-02-23T11:24:29Z</time>
      </trkpt>
      <trkpt lat="47.24268" lon="0.18513">
        <ele>40.79</ele>
        <time>2022-02-23T11:24:37Z</time>
      </trkpt>
      <trkpt lat="47.24269" lon="0.18527">
        <ele>40.85</ele>
        <time>2022-02-23T11:24:44Z</time>
      </trkpt>
      <trkpt lat="47.2427" lon="0.18542">
        <ele>40.89</ele>
        <time>2022-02-23T11:24:52Z</time>
      </trkpt>
      <trkpt lat="47.24271" lon="0.18557">
        <ele>41.15</ele>
        <time>2022-02-23T11:25:00Z</time>
      </trkpt>
      <trkpt lat="47.24273" lon="0.1857">
        <ele>41.1</ele>
        <time>2022-02-23T11:25:07Z</time>
      </trkpt>
      <trkpt lat="47.24275" lon="0.18586">
        <ele>40.96</ele>
        <time>2022-02-23T11:25:15Z</time>
      </trkpt>
      <trkpt lat="47.24277" lon="0.186">
        <ele>40.7</ele>
        <time>2022-02-23T11:25:22Z</time>
      </trkpt>
      <trkpt lat="47.24277" lon="0.18616">
        <ele>40.63</ele>
        <time>2022-02-23T11:25:30Z</time>
      </trkpt>
      <trkpt lat="47.24279" lon="0.1863">
        <ele>40.78</ele>
        <time>2022-02-23T11:25:37Z</time>
      </trkpt>
      <trkpt lat="47.24282" lon="0.18645">
        <ele>41.07</ele>
        <time>2022-02-23T11:25:45Z</time>
      </trkpt>
      <trkpt lat="47.24288" lon="0.18658">
        <ele>41.26</ele>
        <time>2022-02-23T11:25:53Z</time>
      </trkpt>
      <trkpt lat="47.24295" lon="0.18666">
        <ele>41.21</ele>
        <time>2022-02-23T11:26:00Z</time>
      </trkpt>
      <trkpt lat="47.24303" lon="0.18674">
        <ele>41.45</ele>
        <time>2022-02-23T11:26:07Z</time>
      </trkpt>
      <trkpt lat="47.2431" lon="0.18686">
        <ele>41.43</ele>
        <time>2022-02-23T11:26:15Z</time>
      </trkpt>
      <trkpt lat="47.24315" lon="0.18698">
        <ele>41.49</ele>
        <time>2022-02-23T11:26:22Z</time>
      </trkpt>
      <trkpt lat="47.24319" lon="0.18712">
        <ele>41.52</ele>
        <time>2022-02-23T11:26:29Z</time>
      </trkpt>
      <trkpt lat="47.24323" lon="0.18724">
        <ele>41.52</ele>
        <time>2022-02-23T11:26:36Z</time>
      </trkpt>
      <trkpt lat="47.24327" lon="0.18738">
        <ele>41.61</ele>
        <time>2022-02-23T11:26:43Z</time>
      </trkpt>
      <trkpt lat="47.24331" lon="0.18751">
        <ele>41.57</ele>
        <time>2022-02-23T11:26:50Z</time>
      </trkpt>
      <trkpt lat="47.24335" lon="0.18763">
        <ele>41.34</ele>
        <time>2022-02-23T11:26:57Z</time>
      </trkpt>
      <trkpt lat="47.24339" lon="0.18776">
        <ele>41.4</ele>
        <time>2022-02-23T11:27:05Z</time>
      </trkpt>
      <trkpt lat="47.24343" lon="0.18788">
        <ele>41.41</ele>
        <time>2022-02-23T11:27:13Z</time>
      </trkpt>
      <trkpt lat="47.24347" lon="0.18802">
        <ele>41.53</ele>
        <time>2022-02-23T11:27:21Z</time>
      </trkpt>
      <trkpt lat="47.24351" lon="0.18815">
        <ele>41.64</ele>
        <time>2022-02-23T11:27:31Z</time>
      </trkpt>
      <trkpt lat="47.24355" lon="0.18829">
        <ele>42.09</ele>
        <time>2022-02-23T11:27:40Z</time>
      </trkpt>
      <trkpt lat="47.2436" lon="0.18845">
        <ele>42.01</ele>
        <time>2022-02-23T11:27:48Z</time>
      </trkpt>
      <trkpt lat="47.24367" lon="0.18854">
        <ele>41.81</ele>
        <time>2022-02-23T11:27:56Z</time>
      </trkpt>
      <trkpt lat="47.24376" lon="0.18855">
        <ele>41.58</ele>
        <time>2022-02-23T11:28:03Z</time>
      </trkpt>
      <trkpt lat="47.24386" lon="0.18854">
        <ele>41.8</ele>
        <time>2022-02-23T11:28:11Z</time>
      </trkpt>
      <trkpt lat="47.24395" lon="0.18852">
        <ele>41.82</ele>
        <time>2022-02-23T11:28:18Z</time>
      </trkpt>
      <trkpt lat="47.24405" lon="0.18849">
        <ele>41.74</ele>
        <time>2022-02-23T11:28:26Z</time>
      </trkpt>
      <trkpt lat="47.24414" lon="0.18847">
        <ele>41.68</ele>
        <time>2022-02-23T11:28:32Z</time>
      </trkpt>
      <trkpt lat="47.24424" lon="0.18845">
        <ele>41.56</ele>
        <time>2022-02-23T11:28:39Z</time>
      </trkpt>
      <trkpt lat="47.24434" lon="0.18844">
        <ele>41.55</ele>
        <time>2022-02-23T11:28:46Z</time>
      </trkpt>
      <trkpt lat="47.24445" lon="0.18841">
        <ele>41.96</ele>
        <time>2022-02-23T11:28:54Z</time>
      </trkpt>
      <trkpt lat="47.24454" lon="0.18839">
        <ele>42.12</ele>
        <time>2022-02-23T11:29:01Z</time>
      </trkpt>
      <trkpt lat="47.24465" lon="0.1884">
        <ele>42.09</ele>
        <time>2022-02-23T11:29:08Z</time>
      </trkpt>
      <trkpt lat="47.24476" lon="0.18838">
        <ele>42.05</ele>
        <time>2022-02-23T11:29:16Z</time>
      </trkpt>
      <trkpt lat="47.24486" lon="0.1884">
        <ele>41.96</ele>
        <time>2022-02-23T11:29:22Z</time>
      </trkpt>
      <trkpt lat="47.24495" lon="0.18843">
        <ele>41.66</ele>
        <time>2022-02-23T11:29:29Z</time>
      </trkpt>
      <trkpt lat="47.24506" lon="0.18845">
        <ele>41.63</ele>
        <time>2022-02-23T11:29:36Z</time>
      </trkpt>
      <trkpt lat="47.24516" lon="0.18847">
        <ele>41.94</ele>
        <time>2022-02-23T11:29:44Z</time>
      </trkpt>
      <trkpt lat="47.24525" lon="0.1885">
        <ele>41.9</ele>
        <time>2022-02-23T11:29:50Z</time>
      </trkpt>
      <trkpt lat="47.24534" lon="0.18856">
        <ele>41.91</ele>
        <time>2022-02-23T11:29:57Z</time>
      </trkpt>
      <trkpt lat="47.24543" lon="0.18861">
        <ele>41.78</ele>
        <time>2022-02-23T11:30:04Z</time>
      </trkpt>
      <trkpt lat="47.24552" lon="0.18865">
        <ele>41.73</ele>
        <time>2022-02-23T11:30:11Z</time>
      </trkpt>
      <trkpt lat="47.24561" lon="0.1887">
        <ele>41.81</ele>
        <time>2022-02-23T11:30:17Z</time>
      </trkpt>
      <trkpt lat="47.24569" lon="0.18875">
        <ele>41.55</ele>
        <time>2022-02-23T11:30:23Z</time>
      </trkpt>
      <trkpt lat="47.24579" lon="0.18881">
        <ele>41.57</ele>
        <time>2022-02-23T11:30:32Z</time>
      </trkpt>
      <trkpt lat="47.24589" lon="0.18885">
        <ele>41.54</ele>
        <time>2022-02-23T11:30:39Z</time>
      </trkpt>
      <trkpt lat="47.24598" lon="0.18889">
        <ele>41.67</ele>
        <time>2022-02-23T11:30:46Z</time>
      </trkpt>
      <trkpt lat="47.24608" lon="0.18891">
        <ele>41.67</ele>
        <time>2022-02-23T11:30:53Z</time>
      </trkpt>
      <trkpt lat="47.24619" lon="0.18893">
        <ele>41.7</ele>
        <time>2022-02-23T11:31:00Z</time>
      </trkpt>
      <trkpt lat="47.24629" lon="0.18895">
        <ele>41.95</ele>
        <time>2022-02-23T11:31:07Z</time>
      </trkpt>
      <trkpt lat="47.24639" lon="0.18898">
        <ele>41.93</ele>
        <time>2022-02-23T11:31:15Z</time>
      </trkpt>
      <trkpt lat="47.24649" lon="0.18898">
        <ele>41.93</ele>
        <time>2022-02-23T11:31:21Z</time>
      </trkpt>
      <trkpt lat="47.24658" lon="0.18898">
        <ele>42.13</ele>
        <time>2022-02-23T11:31:27Z</time>
      </trkpt>
      <trkpt lat="47.24669" lon="0.18899">
        <ele>42.67</ele>
        <time>2022-02-23T11:31:37Z</time>
      </trkpt>
      <trkpt lat="47.2468" lon="0.189">
        <ele>43.75</ele>
        <time>2022-02-23T11:31:52Z</time>
      </trkpt>
      <trkpt lat="47.2469" lon="0.18899">
        <ele>42.93</ele>
        <time>2022-02-23T11:32:16Z</time>
      </trkpt>
      <trkpt lat="47.24694" lon="0.18887">
        <ele>42.45</ele>
        <time>2022-02-23T11:34:51Z</time>
      </trkpt>
      <trkpt lat="47.24698" lon="0.18874">
        <ele>42.13</ele>
        <time>2022-02-23T11:34:59Z</time>
      </trkpt>
      <trkpt lat="47.24702" lon="0.18859">
        <ele>41.84</ele>
        <time>2022-02-23T11:35:07Z</time>
      </trkpt>
      <trkpt lat="47.24706" lon="0.18846">
        <ele>42.1</ele>
        <time>2022-02-23T11:35:16Z</time>
      </trkpt>
      <trkpt lat="47.24711" lon="0.18835">
        <ele>42.35</ele>
        <time>2022-02-23T11:35:24Z</time>
      </trkpt>
      <trkpt lat="47.24717" lon="0.18823">
        <ele>42.3</ele>
        <time>2022-02-23T11:35:32Z</time>
      </trkpt>
      <trkpt lat="47.24723" lon="0.18811">
        <ele>42.24</ele>
        <time>2022-02-23T11:35:40Z</time>
      </trkpt>
      <trkpt lat="47.2473" lon="0.18801">
        <ele>42.22</ele>
        <time>2022-02-23T11:35:48Z</time>
      </trkpt>
      <trkpt lat="47.24739" lon="0.18793">
        <ele>42.5</ele>
        <time>2022-02-23T11:35:56Z</time>
      </trkpt>
      <trkpt lat="47.24749" lon="0.18786">
        <ele>42.59</ele>
        <time>2022-02-23T11:36:04Z</time>
      </trkpt>
      <trkpt lat="47.24758" lon="0.1878">
        <ele>42.44</ele>
        <time>2022-02-23T11:36:12Z</time>
      </trkpt>
      <trkpt lat="47.24767" lon="0.18775">
        <ele>42.15</ele>
        <time>2022-02-23T11:36:20Z</time>
      </trkpt>
      <trkpt lat="47.24776" lon="0.18769">
        <ele>42.54</ele>
        <time>2022-02-23T11:36:28Z</time>
      </trkpt>
      <trkpt lat="47.24785" lon="0.18763">
        <ele>42.49</ele>
        <time>2022-02-23T11:36:36Z</time>
      </trkpt>
      <trkpt lat="47.24795" lon="0.18758">
        <ele>42.89</ele>
        <time>2022-02-23T11:36:44Z</time>
      </trkpt>
      <trkpt lat="47.24806" lon="0.18753">
        <ele>43.12</ele>
        <time>2022-02-23T11:36:51Z</time>
      </trkpt>
      <trkpt lat="47.24816" lon="0.18748">
        <ele>43.17</ele>
        <time>2022-02-23T11:36:59Z</time>
      </trkpt>
      <trkpt lat="47.24826" lon="0.18743">
        <ele>42.77</ele>
        <time>2022-02-23T11:37:06Z</time>
      </trkpt>
      <trkpt lat="47.24836" lon="0.18737">
        <ele>42.52</ele>
        <time>2022-02-23T11:37:14Z</time>
      </trkpt>
      <trkpt lat="47.24845" lon="0.18731">
        <ele>42.65</ele>
        <time>2022-02-23T11:37:21Z</time>
      </trkpt>
      <trkpt lat="47.24855" lon="0.18725">
        <ele>42.92</ele>
        <time>2022-02-23T11:37:29Z</time>
      </trkpt>
      <trkpt lat="47.24866" lon="0.18719">
        <ele>42.86</ele>
        <time>2022-02-23T11:37:37Z</time>
      </trkpt>
      <trkpt lat="47.24876" lon="0.18714">
        <ele>42.75</ele>
        <time>2022-02-23T11:37:46Z</time>
      </trkpt>
      <trkpt lat="47.24885" lon="0.18707">
        <ele>42.92</ele>
        <time>2022-02-23T11:37:53Z</time>
      </trkpt>
      <trkpt lat="47.24895" lon="0.187">
        <ele>43.18</ele>
        <time>2022-02-23T11:38:00Z</time>
      </trkpt>
      <trkpt lat="47.24904" lon="0.18691">
        <ele>43.21</ele>
        <time>2022-02-23T11:38:08Z</time>
      </trkpt>
      <trkpt lat="47.24913" lon="0.18684">
        <ele>43.09</ele>
        <time>2022-02-23T11:38:15Z</time>
      </trkpt>
      <trkpt lat="47.24922" lon="0.18679">
        <ele>42.88</ele>
        <time>2022-02-23T11:38:23Z</time>
      </trkpt>
      <trkpt lat="47.24931" lon="0.18671">
        <ele>42.97</ele>
        <time>2022-02-23T11:38:31Z</time>
      </trkpt>
      <trkpt lat="47.24941" lon="0.18663">
        <ele>42.96</ele>
        <time>2022-02-23T11:38:39Z</time>
      </trkpt>
      <trkpt lat="47.2495" lon="0.18657">
        <ele>42.92</ele>
        <time>2022-02-23T11:38:45Z</time>
      </trkpt>
      <trkpt lat="47.24959" lon="0.18651">
        <ele>42.95</ele>
        <time>2022-02-23T11:38:53Z</time>
      </trkpt>
      <trkpt lat="47.24969" lon="0.18646">
        <ele>43.21</ele>
        <time>2022-02-23T11:39:00Z</time>
      </trkpt>
      <trkpt lat="47.24978" lon="0.18642">
        <ele>42.98</ele>
        <time>2022-02-23T11:39:07Z</time>
      </trkpt>
      <trkpt lat="47.24987" lon="0.18639">
        <ele>42.91</ele>
        <time>2022-02-23T11:39:15Z</time>
      </trkpt>
      <trkpt lat="47.24998" lon="0.18637">
        <ele>42.91</ele>
        <time>2022-02-23T11:39:23Z</time>
      </trkpt>
      <trkpt lat="47.25008" lon="0.18631">
        <ele>42.77</ele>
        <time>2022-02-23T11:39:31Z</time>
      </trkpt>
      <trkpt lat="47.25018" lon="0.18628">
        <ele>42.92</ele>
        <time>2022-02-23T11:39:39Z</time>
      </trkpt>
      <trkpt lat="47.25028" lon="0.18627">
        <ele>43</ele>
        <time>2022-02-23T11:39:47Z</time>
      </trkpt>
      <trkpt lat="47.25038" lon="0.18625">
        <ele>43.22</ele>
        <time>2022-02-23T11:39:55Z</time>
      </trkpt>
      <trkpt lat="47.25048" lon="0.18627">
        <ele>43</ele>
        <time>2022-02-23T11:40:02Z</time>
      </trkpt>
      <trkpt lat="47.2505" lon="0.18637">
        <ele>42.7</ele>
        <time>2022-02-23T11:40:09Z</time>
      </trkpt>
      <trkpt lat="47.25046" lon="0.1865">
        <ele>42.55</ele>
        <time>2022-02-23T11:40:16Z</time>
      </trkpt>
      <trkpt lat="47.25043" lon="0.18663">
        <ele>42.51</ele>
        <time>2022-02-23T11:40:24Z</time>
      </trkpt>
      <trkpt lat="47.25037" lon="0.18676">
        <ele>42.46</ele>
        <time>2022-02-23T11:40:31Z</time>
      </trkpt>
      <trkpt lat="47.25034" lon="0.1869">
        <ele>42.52</ele>
        <time>2022-02-23T11:40:39Z</time>
      </trkpt>
      <trkpt lat="47.25032" lon="0.18703">
        <ele>42.51</ele>
        <time>2022-02-23T11:40:46Z</time>
      </trkpt>
      <trkpt lat="47.25031" lon="0.18717">
        <ele>42.68</ele>
        <time>2022-02-23T11:40:53Z</time>
      </trkpt>
      <trkpt lat="47.25031" lon="0.18732">
        <ele>42.73</ele>
        <time>2022-02-23T11:41:01Z</time>
      </trkpt>
      <trkpt lat="47.25031" lon="0.18746">
        <ele>42.6</ele>
        <time>2022-02-23T11:41:08Z</time>
      </trkpt>
      <trkpt lat="47.25031" lon="0.18761">
        <ele>42.36</ele>
        <time>2022-02-23T11:41:17Z</time>
      </trkpt>
      <trkpt lat="47.25031" lon="0.18776">
        <ele>42.35</ele>
        <time>2022-02-23T11:41:25Z</time>
      </trkpt>
      <trkpt lat="47.25029" lon="0.1879">
        <ele>42.25</ele>
        <time>2022-02-23T11:41:32Z</time>
      </trkpt>
      <trkpt lat="47.25027" lon="0.18805">
        <ele>42.21</ele>
        <time>2022-02-23T11:41:39Z</time>
      </trkpt>
      <trkpt lat="47.25026" lon="0.18821">
        <ele>42.52</ele>
        <time>2022-02-23T11:41:47Z</time>
      </trkpt>
      <trkpt lat="47.25024" lon="0.18837">
        <ele>42.61</ele>
        <time>2022-02-23T11:41:55Z</time>
      </trkpt>
      <trkpt lat="47.25024" lon="0.18851">
        <ele>42.66</ele>
        <time>2022-02-23T11:42:02Z</time>
      </trkpt>
      <trkpt lat="47.25024" lon="0.18866">
        <ele>42.8</ele>
        <time>2022-02-23T11:42:10Z</time>
      </trkpt>
      <trkpt lat="47.25022" lon="0.18881">
        <ele>42.93</ele>
        <time>2022-02-23T11:42:18Z</time>
      </trkpt>
      <trkpt lat="47.25023" lon="0.18897">
        <ele>43.08</ele>
        <time>2022-02-23T11:42:26Z</time>
      </trkpt>
      <trkpt lat="47.25022" lon="0.18912">
        <ele>43.15</ele>
        <time>2022-02-23T11:42:34Z</time>
      </trkpt>
      <trkpt lat="47.25023" lon="0.18928">
        <ele>43.13</ele>
        <time>2022-02-23T11:42:41Z</time>
      </trkpt>
      <trkpt lat="47.25024" lon="0.18943">
        <ele>43.03</ele>
        <time>2022-02-23T11:42:48Z</time>
      </trkpt>
      <trkpt lat="47.25024" lon="0.18958">
        <ele>43</ele>
        <time>2022-02-23T11:42:55Z</time>
      </trkpt>
      <trkpt lat="47.25025" lon="0.18972">
        <ele>43.04</ele>
        <time>2022-02-23T11:43:02Z</time>
      </trkpt>
      <trkpt lat="47.25028" lon="0.18985">
        <ele>43.14</ele>
        <time>2022-02-23T11:43:09Z</time>
      </trkpt>
      <trkpt lat="47.25031" lon="0.18999">
        <ele>43.3</ele>
        <time>2022-02-23T11:43:16Z</time>
      </trkpt>
      <trkpt lat="47.25035" lon="0.19013">
        <ele>43.35</ele>
        <time>2022-02-23T11:43:24Z</time>
      </trkpt>
      <trkpt lat="47.25039" lon="0.19025">
        <ele>43.09</ele>
        <time>2022-02-23T11:43:35Z</time>
      </trkpt>
      <trkpt lat="47.25042" lon="0.19038">
        <ele>42.93</ele>
        <time>2022-02-23T11:43:42Z</time>
      </trkpt>
      <trkpt lat="47.25045" lon="0.19052">
        <ele>42.91</ele>
        <time>2022-02-23T11:43:56Z</time>
      </trkpt>
      <trkpt lat="47.25046" lon="0.19066">
        <ele>43.07</ele>
        <time>2022-02-23T11:44:04Z</time>
      </trkpt>
      <trkpt lat="47.25046" lon="0.1908">
        <ele>43.13</ele>
        <time>2022-02-23T11:44:11Z</time>
      </trkpt>
      <trkpt lat="47.25045" lon="0.19094">
        <ele>43.3</ele>
        <time>2022-02-23T11:44:18Z</time>
      </trkpt>
      <trkpt lat="47.25045" lon="0.19109">
        <ele>43.32</ele>
        <time>2022-02-23T11:44:25Z</time>
      </trkpt>
      <trkpt lat="47.25045" lon="0.19122">
        <ele>43.14</ele>
        <time>2022-02-23T11:44:32Z</time>
      </trkpt>
      <trkpt lat="47.25046" lon="0.19135">
        <ele>42.93</ele>
        <time>2022-02-23T11:44:39Z</time>
      </trkpt>
      <trkpt lat="47.25047" lon="0.19149">
        <ele>42.99</ele>
        <time>2022-02-23T11:44:46Z</time>
      </trkpt>
      <trkpt lat="47.25048" lon="0.19163">
        <ele>43.09</ele>
        <time>2022-02-23T11:44:53Z</time>
      </trkpt>
      <trkpt lat="47.25049" lon="0.19176">
        <ele>43.01</ele>
        <time>2022-02-23T11:45:00Z</time>
      </trkpt>
      <trkpt lat="47.2505" lon="0.1919">
        <ele>43.17</ele>
        <time>2022-02-23T11:45:07Z</time>
      </trkpt>
      <trkpt lat="47.2505" lon="0.19203">
        <ele>43.27</ele>
        <time>2022-02-23T11:45:14Z</time>
      </trkpt>
      <trkpt lat="47.25051" lon="0.19218">
        <ele>43.36</ele>
        <time>2022-02-23T11:45:21Z</time>
      </trkpt>
      <trkpt lat="47.25051" lon="0.19232">
        <ele>43.33</ele>
        <time>2022-02-23T11:45:28Z</time>
      </trkpt>
      <trkpt lat="47.25047" lon="0.19245">
        <ele>43.31</ele>
        <time>2022-02-23T11:45:35Z</time>
      </trkpt>
      <trkpt lat="47.25039" lon="0.19259">
        <ele>43.53</ele>
        <time>2022-02-23T11:45:46Z</time>
      </trkpt>
      <trkpt lat="47.25033" lon="0.19272">
        <ele>43.9</ele>
        <time>2022-02-23T11:45:54Z</time>
      </trkpt>
      <trkpt lat="47.25026" lon="0.19282">
        <ele>43.99</ele>
        <time>2022-02-23T11:46:01Z</time>
      </trkpt>
      <trkpt lat="47.2502" lon="0.19295">
        <ele>44.03</ele>
        <time>2022-02-23T11:46:09Z</time>
      </trkpt>
      <trkpt lat="47.25015" lon="0.19307">
        <ele>43.9</ele>
        <time>2022-02-23T11:46:16Z</time>
      </trkpt>
      <trkpt lat="47.25008" lon="0.19317">
        <ele>44.01</ele>
        <time>2022-02-23T11:46:23Z</time>
      </trkpt>
      <trkpt lat="47.25002" lon="0.19327">
        <ele>44.28</ele>
        <time>2022-02-23T11:46:31Z</time>
      </trkpt>
      <trkpt lat="47.24997" lon="0.19339">
        <ele>44.57</ele>
        <time>2022-02-23T11:46:39Z</time>
      </trkpt>
      <trkpt lat="47.24992" lon="0.19353">
        <ele>44.29</ele>
        <time>2022-02-23T11:46:47Z</time>
      </trkpt>
      <trkpt lat="47.24989" lon="0.19367">
        <ele>44.1</ele>
        <time>2022-02-23T11:46:54Z</time>
      </trkpt>
      <trkpt lat="47.24984" lon="0.19379">
        <ele>44.05</ele>
        <time>2022-02-23T11:47:02Z</time>
      </trkpt>
      <trkpt lat="47.24982" lon="0.19394">
        <ele>44.07</ele>
        <time>2022-02-23T11:47:10Z</time>
      </trkpt>
      <trkpt lat="47.24979" lon="0.19407">
        <ele>43.96</ele>
        <time>2022-02-23T11:47:17Z</time>
      </trkpt>
      <trkpt lat="47.24976" lon="0.19421">
        <ele>44.06</ele>
        <time>2022-02-23T11:47:24Z</time>
      </trkpt>
      <trkpt lat="47.24975" lon="0.19434">
        <ele>43.86</ele>
        <time>2022-02-23T11:47:31Z</time>
      </trkpt>
      <trkpt lat="47.24976" lon="0.19447">
        <ele>44.01</ele>
        <time>2022-02-23T11:47:38Z</time>
      </trkpt>
      <trkpt lat="47.24979" lon="0.19461">
        <ele>44.11</ele>
        <time>2022-02-23T11:47:46Z</time>
      </trkpt>
      <trkpt lat="47.24981" lon="0.19475">
        <ele>44.05</ele>
        <time>2022-02-23T11:47:54Z</time>
      </trkpt>
      <trkpt lat="47.24983" lon="0.19488">
        <ele>44.25</ele>
        <time>2022-02-23T11:48:01Z</time>
      </trkpt>
      <trkpt lat="47.24985" lon="0.19501">
        <ele>44.11</ele>
        <time>2022-02-23T11:48:08Z</time>
      </trkpt>
      <trkpt lat="47.24987" lon="0.19515">
        <ele>43.91</ele>
        <time>2022-02-23T11:48:15Z</time>
      </trkpt>
      <trkpt lat="47.24989" lon="0.19529">
        <ele>44</ele>
        <time>2022-02-23T11:48:22Z</time>
      </trkpt>
      <trkpt lat="47.24992" lon="0.19544">
        <ele>44.03</ele>
        <time>2022-02-23T11:48:30Z</time>
      </trkpt>
      <trkpt lat="47.24994" lon="0.19556">
        <ele>43.98</ele>
        <time>2022-02-23T11:48:37Z</time>
      </trkpt>
      <trkpt lat="47.24995" lon="0.1957">
        <ele>44.14</ele>
        <time>2022-02-23T11:48:44Z</time>
      </trkpt>
      <trkpt lat="47.24996" lon="0.19584">
        <ele>44.2</ele>
        <time>2022-02-23T11:48:51Z</time>
      </trkpt>
      <trkpt lat="47.24997" lon="0.19598">
        <ele>44.13</ele>
        <time>2022-02-23T11:48:58Z</time>
      </trkpt>
      <trkpt lat="47.24999" lon="0.19613">
        <ele>44.1</ele>
        <time>2022-02-23T11:49:05Z</time>
      </trkpt>
      <trkpt lat="47.25" lon="0.19627">
        <ele>44.21</ele>
        <time>2022-02-23T11:49:12Z</time>
      </trkpt>
      <trkpt lat="47.25001" lon="0.19641">
        <ele>44.22</ele>
        <time>2022-02-23T11:49:19Z</time>
      </trkpt>
      <trkpt lat="47.25001" lon="0.19655">
        <ele>44.35</ele>
        <time>2022-02-23T11:49:26Z</time>
      </trkpt>
      <trkpt lat="47.25001" lon="0.19669">
        <ele>44.31</ele>
        <time>2022-02-23T11:49:33Z</time>
      </trkpt>
      <trkpt lat="47.25003" lon="0.19683">
        <ele>44.31</ele>
        <time>2022-02-23T11:49:40Z</time>
      </trkpt>
      <trkpt lat="47.25005" lon="0.19697">
        <ele>44.29</ele>
        <time>2022-02-23T11:49:48Z</time>
      </trkpt>
      <trkpt lat="47.25006" lon="0.1971">
        <ele>44.33</ele>
        <time>2022-02-23T11:49:56Z</time>
      </trkpt>
      <trkpt lat="47.25008" lon="0.19725">
        <ele>44.47</ele>
        <time>2022-02-23T11:50:04Z</time>
      </trkpt>
      <trkpt lat="47.2501" lon="0.1974">
        <ele>44.53</ele>
        <time>2022-02-23T11:50:12Z</time>
      </trkpt>
      <trkpt lat="47.25013" lon="0.19753">
        <ele>44.42</ele>
        <time>2022-02-23T11:50:19Z</time>
      </trkpt>
      <trkpt lat="47.25016" lon="0.19768">
        <ele>44.29</ele>
        <time>2022-02-23T11:50:27Z</time>
      </trkpt>
      <trkpt lat="47.2502" lon="0.19783">
        <ele>44.11</ele>
        <time>2022-02-23T11:50:35Z</time>
      </trkpt>
      <trkpt lat="47.25022" lon="0.19798">
        <ele>44.02</ele>
        <time>2022-02-23T11:50:43Z</time>
      </trkpt>
      <trkpt lat="47.25024" lon="0.19811">
        <ele>43.85</ele>
        <time>2022-02-23T11:50:50Z</time>
      </trkpt>
      <trkpt lat="47.25024" lon="0.19826">
        <ele>43.89</ele>
        <time>2022-02-23T11:50:58Z</time>
      </trkpt>
      <trkpt lat="47.25023" lon="0.1984">
        <ele>44.19</ele>
        <time>2022-02-23T11:51:06Z</time>
      </trkpt>
      <trkpt lat="47.25023" lon="0.19855">
        <ele>44.4</ele>
        <time>2022-02-23T11:51:14Z</time>
      </trkpt>
      <trkpt lat="47.25023" lon="0.19868">
        <ele>44.16</ele>
        <time>2022-02-23T11:51:21Z</time>
      </trkpt>
      <trkpt lat="47.25023" lon="0.19883">
        <ele>44.14</ele>
        <time>2022-02-23T11:51:29Z</time>
      </trkpt>
      <trkpt lat="47.25024" lon="0.19899">
        <ele>44.31</ele>
        <time>2022-02-23T11:51:36Z</time>
      </trkpt>
      <trkpt lat="47.25023" lon="0.19913">
        <ele>44.23</ele>
        <time>2022-02-23T11:51:43Z</time>
      </trkpt>
      <trkpt lat="47.25021" lon="0.19927">
        <ele>44.31</ele>
        <time>2022-02-23T11:51:50Z</time>
      </trkpt>
      <trkpt lat="47.25021" lon="0.19941">
        <ele>44.18</ele>
        <time>2022-02-23T11:51:58Z</time>
      </trkpt>
      <trkpt lat="47.25018" lon="0.19954">
        <ele>44.02</ele>
        <time>2022-02-23T11:52:05Z</time>
      </trkpt>
      <trkpt lat="47.25016" lon="0.19968">
        <ele>43.92</ele>
        <time>2022-02-23T11:52:12Z</time>
      </trkpt>
      <trkpt lat="47.25012" lon="0.19983">
        <ele>43.98</ele>
        <time>2022-02-23T11:52:20Z</time>
      </trkpt>
      <trkpt lat="47.2501" lon="0.19998">
        <ele>43.95</ele>
        <time>2022-02-23T11:52:27Z</time>
      </trkpt>
      <trkpt lat="47.25009" lon="0.20011">
        <ele>43.93</ele>
        <time>2022-02-23T11:52:34Z</time>
      </trkpt>
      <trkpt lat="47.25007" lon="0.20026">
        <ele>44.06</ele>
        <time>2022-02-23T11:52:41Z</time>
      </trkpt>
      <trkpt lat="47.25005" lon="0.20039">
        <ele>43.93</ele>
        <time>2022-02-23T11:52:48Z</time>
      </trkpt>
      <trkpt lat="47.25006" lon="0.20054">
        <ele>43.99</ele>
        <time>2022-02-23T11:52:55Z</time>
      </trkpt>
      <trkpt lat="47.25006" lon="0.20068">
        <ele>44.24</ele>
        <time>2022-02-23T11:53:02Z</time>
      </trkpt>
      <trkpt lat="47.25006" lon="0.20082">
        <ele>44.45</ele>
        <time>2022-02-23T11:53:10Z</time>
      </trkpt>
      <trkpt lat="47.25007" lon="0.20097">
        <ele>44.38</ele>
        <time>2022-02-23T11:53:17Z</time>
      </trkpt>
      <trkpt lat="47.25004" lon="0.20111">
        <ele>44.33</ele>
        <time>2022-02-23T11:53:25Z</time>
      </trkpt>
      <trkpt lat="47.25006" lon="0.20123">
        <ele>44.07</ele>
        <time>2022-02-23T11:53:32Z</time>
      </trkpt>
      <trkpt lat="47.25008" lon="0.20138">
        <ele>44.12</ele>
        <time>2022-02-23T11:53:40Z</time>
      </trkpt>
      <trkpt lat="47.25009" lon="0.20153">
        <ele>44.28</ele>
        <time>2022-02-23T11:53:48Z</time>
      </trkpt>
      <trkpt lat="47.2501" lon="0.20167">
        <ele>44.24</ele>
        <time>2022-02-23T11:53:55Z</time>
      </trkpt>
      <trkpt lat="47.2501" lon="0.20182">
        <ele>44.3</ele>
        <time>2022-02-23T11:54:03Z</time>
      </trkpt>
      <trkpt lat="47.25012" lon="0.20196">
        <ele>44.36</ele>
        <time>2022-02-23T11:54:11Z</time>
      </trkpt>
      <trkpt lat="47.25014" lon="0.2021">
        <ele>44.42</ele>
        <time>2022-02-23T11:54:17Z</time>
      </trkpt>
      <trkpt lat="47.25017" lon="0.20225">
        <ele>44.05</ele>
        <time>2022-02-23T11:54:29Z</time>
      </trkpt>
      <trkpt lat="47.25019" lon="0.20239">
        <ele>44.18</ele>
        <time>2022-02-23T11:54:37Z</time>
      </trkpt>
      <trkpt lat="47.25022" lon="0.20254">
        <ele>44.27</ele>
        <time>2022-02-23T11:54:45Z</time>
      </trkpt>
      <trkpt lat="47.25023" lon="0.20269">
        <ele>44.11</ele>
        <time>2022-02-23T11:54:52Z</time>
      </trkpt>
      <trkpt lat="47.25024" lon="0.20284">
        <ele>44.04</ele>
        <time>2022-02-23T11:54:59Z</time>
      </trkpt>
      <trkpt lat="47.25023" lon="0.20299">
        <ele>44.01</ele>
        <time>2022-02-23T11:55:06Z</time>
      </trkpt>
      <trkpt lat="47.2502" lon="0.20315">
        <ele>44.29</ele>
        <time>2022-02-23T11:55:13Z</time>
      </trkpt>
      <trkpt lat="47.25018" lon="0.20329">
        <ele>44.33</ele>
        <time>2022-02-23T11:55:20Z</time>
      </trkpt>
      <trkpt lat="47.25016" lon="0.20343">
        <ele>44.56</ele>
        <time>2022-02-23T11:55:27Z</time>
      </trkpt>
      <trkpt lat="47.25012" lon="0.20357">
        <ele>44.65</ele>
        <time>2022-02-23T11:55:34Z</time>
      </trkpt>
      <trkpt lat="47.2501" lon="0.20371">
        <ele>44.86</ele>
        <time>2022-02-23T11:55:41Z</time>
      </trkpt>
      <trkpt lat="47.25008" lon="0.20383">
        <ele>44.82</ele>
        <time>2022-02-23T11:55:48Z</time>
      </trkpt>
      <trkpt lat="47.25006" lon="0.20396">
        <ele>44.98</ele>
        <time>2022-02-23T11:55:57Z</time>
      </trkpt>
      <trkpt lat="47.25003" lon="0.20409">
        <ele>44.92</ele>
        <time>2022-02-23T11:56:04Z</time>
      </trkpt>
      <trkpt lat="47.25001" lon="0.20422">
        <ele>45.06</ele>
        <time>2022-02-23T11:56:12Z</time>
      </trkpt>
      <trkpt lat="47.25" lon="0.20435">
        <ele>45.27</ele>
        <time>2022-02-23T11:56:19Z</time>
      </trkpt>
      <trkpt lat="47.25" lon="0.20449">
        <ele>45.44</ele>
        <time>2022-02-23T11:56:26Z</time>
      </trkpt>
      <trkpt lat="47.25002" lon="0.20462">
        <ele>45.09</ele>
        <time>2022-02-23T11:56:33Z</time>
      </trkpt>
      <trkpt lat="47.25002" lon="0.20477">
        <ele>45.1</ele>
        <time>2022-02-23T11:56:41Z</time>
      </trkpt>
      <trkpt lat="47.25003" lon="0.20491">
        <ele>44.82</ele>
        <time>2022-02-23T11:56:51Z</time>
      </trkpt>
      <trkpt lat="47.25011" lon="0.20505">
        <ele>44.51</ele>
        <time>2022-02-23T11:57:00Z</time>
      </trkpt>
      <trkpt lat="47.25017" lon="0.20516">
        <ele>44.36</ele>
        <time>2022-02-23T11:57:08Z</time>
      </trkpt>
      <trkpt lat="47.25022" lon="0.20527">
        <ele>44.22</ele>
        <time>2022-02-23T11:57:16Z</time>
      </trkpt>
      <trkpt lat="47.25028" lon="0.20538">
        <ele>44.35</ele>
        <time>2022-02-23T11:57:23Z</time>
      </trkpt>
      <trkpt lat="47.25032" lon="0.2055">
        <ele>44.57</ele>
        <time>2022-02-23T11:57:30Z</time>
      </trkpt>
      <trkpt lat="47.25038" lon="0.20561">
        <ele>44.85</ele>
        <time>2022-02-23T11:57:37Z</time>
      </trkpt>
      <trkpt lat="47.25044" lon="0.20573">
        <ele>44.8</ele>
        <time>2022-02-23T11:57:45Z</time>
      </trkpt>
      <trkpt lat="47.25049" lon="0.20585">
        <ele>44.76</ele>
        <time>2022-02-23T11:57:53Z</time>
      </trkpt>
      <trkpt lat="47.25055" lon="0.20596">
        <ele>44.74</ele>
        <time>2022-02-23T11:58:00Z</time>
      </trkpt>
      <trkpt lat="47.25061" lon="0.20606">
        <ele>45.02</ele>
        <time>2022-02-23T11:58:07Z</time>
      </trkpt>
      <trkpt lat="47.25067" lon="0.20617">
        <ele>45</ele>
        <time>2022-02-23T11:58:14Z</time>
      </trkpt>
      <trkpt lat="47.25072" lon="0.20629">
        <ele>45.03</ele>
        <time>2022-02-23T11:58:23Z</time>
      </trkpt>
      <trkpt lat="47.25077" lon="0.20641">
        <ele>45.22</ele>
        <time>2022-02-23T11:58:31Z</time>
      </trkpt>
      <trkpt lat="47.25082" lon="0.20654">
        <ele>44.99</ele>
        <time>2022-02-23T11:58:39Z</time>
      </trkpt>
      <trkpt lat="47.25087" lon="0.20665">
        <ele>45.09</ele>
        <time>2022-02-23T11:58:47Z</time>
      </trkpt>
      <trkpt lat="47.25093" lon="0.20676">
        <ele>45.2</ele>
        <time>2022-02-23T11:58:54Z</time>
      </trkpt>
      <trkpt lat="47.25101" lon="0.20685">
        <ele>45.36</ele>
        <time>2022-02-23T11:59:02Z</time>
      </trkpt>
      <trkpt lat="47.25105" lon="0.20698">
        <ele>45.27</ele>
        <time>2022-02-23T11:59:10Z</time>
      </trkpt>
      <trkpt lat="47.25112" lon="0.20708">
        <ele>45.33</ele>
        <time>2022-02-23T11:59:17Z</time>
      </trkpt>
      <trkpt lat="47.25118" lon="0.20721">
        <ele>45.7</ele>
        <time>2022-02-23T11:59:28Z</time>
      </trkpt>
      <trkpt lat="47.25125" lon="0.20729">
        <ele>45.8</ele>
        <time>2022-02-23T11:59:36Z</time>
      </trkpt>
      <trkpt lat="47.25132" lon="0.20739">
        <ele>45.7</ele>
        <time>2022-02-23T11:59:43Z</time>
      </trkpt>
      <trkpt lat="47.25137" lon="0.2075">
        <ele>45.59</ele>
        <time>2022-02-23T11:59:50Z</time>
      </trkpt>
      <trkpt lat="47.25144" lon="0.2076">
        <ele>45.65</ele>
        <time>2022-02-23T11:59:57Z</time>
      </trkpt>
      <trkpt lat="47.25151" lon="0.2077">
        <ele>45.72</ele>
        <time>2022-02-23T12:00:04Z</time>
      </trkpt>
      <trkpt lat="47.25159" lon="0.20779">
        <ele>45.78</ele>
        <time>2022-02-23T12:00:12Z</time>
      </trkpt>
      <trkpt lat="47.25166" lon="0.20789">
        <ele>45.85</ele>
        <time>2022-02-23T12:00:19Z</time>
      </trkpt>
      <trkpt lat="47.25172" lon="0.20799">
        <ele>45.69</ele>
        <time>2022-02-23T12:00:26Z</time>
      </trkpt>
      <trkpt lat="47.25175" lon="0.20812">
        <ele>45.78</ele>
        <time>2022-02-23T12:00:39Z</time>
      </trkpt>
      <trkpt lat="47.25183" lon="0.20819">
        <ele>46.26</ele>
        <time>2022-02-23T12:01:15Z</time>
      </trkpt>
      <trkpt lat="47.25192" lon="0.20834">
        <ele>45.99</ele>
        <time>2022-02-23T12:01:24Z</time>
      </trkpt>
      <trkpt lat="47.25193" lon="0.20842">
        <ele>46.48</ele>
        <time>2022-02-23T12:01:47Z</time>
      </trkpt>
      <trkpt lat="47.25202" lon="0.20835">
        <ele>45.97</ele>
        <time>2022-02-23T12:02:10Z</time>
      </trkpt>
      <trkpt lat="47.2521" lon="0.20831">
        <ele>46.08</ele>
        <time>2022-02-23T12:02:18Z</time>
      </trkpt>
      <trkpt lat="47.25219" lon="0.20825">
        <ele>46.01</ele>
        <time>2022-02-23T12:02:25Z</time>
      </trkpt>
      <trkpt lat="47.25229" lon="0.2082">
        <ele>45.97</ele>
        <time>2022-02-23T12:02:33Z</time>
      </trkpt>
      <trkpt lat="47.25237" lon="0.20816">
        <ele>45.71</ele>
        <time>2022-02-23T12:02:39Z</time>
      </trkpt>
      <trkpt lat="47.25247" lon="0.2081">
        <ele>45.9</ele>
        <time>2022-02-23T12:02:49Z</time>
      </trkpt>
      <trkpt lat="47.25258" lon="0.20805">
        <ele>45.87</ele>
        <time>2022-02-23T12:02:56Z</time>
      </trkpt>
      <trkpt lat="47.25268" lon="0.20802">
        <ele>45.77</ele>
        <time>2022-02-23T12:03:04Z</time>
      </trkpt>
      <trkpt lat="47.25277" lon="0.20797">
        <ele>45.72</ele>
        <time>2022-02-23T12:03:12Z</time>
      </trkpt>
      <trkpt lat="47.25287" lon="0.20792">
        <ele>45.69</ele>
        <time>2022-02-23T12:03:20Z</time>
      </trkpt>
      <trkpt lat="47.25297" lon="0.20786">
        <ele>45.71</ele>
        <time>2022-02-23T12:03:30Z</time>
      </trkpt>
      <trkpt lat="47.25306" lon="0.20782">
        <ele>45.73</ele>
        <time>2022-02-23T12:03:38Z</time>
      </trkpt>
      <trkpt lat="47.25316" lon="0.20777">
        <ele>45.61</ele>
        <time>2022-02-23T12:03:46Z</time>
      </trkpt>
      <trkpt lat="47.25326" lon="0.20773">
        <ele>45.88</ele>
        <time>2022-02-23T12:03:54Z</time>
      </trkpt>
      <trkpt lat="47.25337" lon="0.20766">
        <ele>45.74</ele>
        <time>2022-02-23T12:04:04Z</time>
      </trkpt>
      <trkpt lat="47.25347" lon="0.2076">
        <ele>45.74</ele>
        <time>2022-02-23T12:04:12Z</time>
      </trkpt>
      <trkpt lat="47.25358" lon="0.20756">
        <ele>45.71</ele>
        <time>2022-02-23T12:04:19Z</time>
      </trkpt>
      <trkpt lat="47.25368" lon="0.20751">
        <ele>45.64</ele>
        <time>2022-02-23T12:04:27Z</time>
      </trkpt>
      <trkpt lat="47.25379" lon="0.20746">
        <ele>45.65</ele>
        <time>2022-02-23T12:04:35Z</time>
      </trkpt>
      <trkpt lat="47.25387" lon="0.20741">
        <ele>45.86</ele>
        <time>2022-02-23T12:04:43Z</time>
      </trkpt>
      <trkpt lat="47.25398" lon="0.20737">
        <ele>46</ele>
        <time>2022-02-23T12:04:51Z</time>
      </trkpt>
      <trkpt lat="47.25408" lon="0.20731">
        <ele>45.94</ele>
        <time>2022-02-23T12:04:59Z</time>
      </trkpt>
      <trkpt lat="47.25416" lon="0.20724">
        <ele>45.94</ele>
        <time>2022-02-23T12:05:06Z</time>
      </trkpt>
      <trkpt lat="47.25425" lon="0.20717">
        <ele>46.08</ele>
        <time>2022-02-23T12:05:13Z</time>
      </trkpt>
      <trkpt lat="47.25435" lon="0.20712">
        <ele>46.06</ele>
        <time>2022-02-23T12:05:21Z</time>
      </trkpt>
      <trkpt lat="47.25444" lon="0.20707">
        <ele>46.02</ele>
        <time>2022-02-23T12:05:29Z</time>
      </trkpt>
      <trkpt lat="47.25452" lon="0.20701">
        <ele>45.87</ele>
        <time>2022-02-23T12:05:36Z</time>
      </trkpt>
      <trkpt lat="47.2546" lon="0.20695">
        <ele>45.98</ele>
        <time>2022-02-23T12:05:43Z</time>
      </trkpt>
      <trkpt lat="47.25471" lon="0.20689">
        <ele>45.86</ele>
        <time>2022-02-23T12:05:51Z</time>
      </trkpt>
      <trkpt lat="47.2548" lon="0.2068">
        <ele>46.19</ele>
        <time>2022-02-23T12:06:01Z</time>
      </trkpt>
      <trkpt lat="47.2549" lon="0.20671">
        <ele>46.28</ele>
        <time>2022-02-23T12:06:09Z</time>
      </trkpt>
      <trkpt lat="47.25496" lon="0.2066">
        <ele>46.19</ele>
        <time>2022-02-23T12:06:17Z</time>
      </trkpt>
      <trkpt lat="47.255" lon="0.20648">
        <ele>46.27</ele>
        <time>2022-02-23T12:06:25Z</time>
      </trkpt>
      <trkpt lat="47.25502" lon="0.20636">
        <ele>46.09</ele>
        <time>2022-02-23T12:06:33Z</time>
      </trkpt>
      <trkpt lat="47.25503" lon="0.20621">
        <ele>46.14</ele>
        <time>2022-02-23T12:06:41Z</time>
      </trkpt>
      <trkpt lat="47.25503" lon="0.20608">
        <ele>46</ele>
        <time>2022-02-23T12:06:49Z</time>
      </trkpt>
      <trkpt lat="47.25509" lon="0.20595">
        <ele>45.91</ele>
        <time>2022-02-23T12:06:58Z</time>
      </trkpt>
      <trkpt lat="47.25517" lon="0.20586">
        <ele>45.92</ele>
        <time>2022-02-23T12:07:06Z</time>
      </trkpt>
      <trkpt lat="47.25525" lon="0.20578">
        <ele>46.21</ele>
        <time>2022-02-23T12:07:15Z</time>
      </trkpt>
      <trkpt lat="47.25537" lon="0.20571">
        <ele>46.18</ele>
        <time>2022-02-23T12:07:25Z</time>
      </trkpt>
      <trkpt lat="47.25547" lon="0.20563">
        <ele>46.21</ele>
        <time>2022-02-23T12:07:33Z</time>
      </trkpt>
      <trkpt lat="47.25556" lon="0.20555">
        <ele>45.97</ele>
        <time>2022-02-23T12:07:41Z</time>
      </trkpt>
      <trkpt lat="47.25565" lon="0.20549">
        <ele>45.86</ele>
        <time>2022-02-23T12:07:49Z</time>
      </trkpt>
      <trkpt lat="47.25576" lon="0.20543">
        <ele>46.03</ele>
        <time>2022-02-23T12:07:57Z</time>
      </trkpt>
      <trkpt lat="47.25586" lon="0.20537">
        <ele>45.83</ele>
        <time>2022-02-23T12:08:05Z</time>
      </trkpt>
      <trkpt lat="47.25597" lon="0.20531">
        <ele>46.05</ele>
        <time>2022-02-23T12:08:15Z</time>
      </trkpt>
      <trkpt lat="47.25607" lon="0.20524">
        <ele>46</ele>
        <time>2022-02-23T12:08:22Z</time>
      </trkpt>
      <trkpt lat="47.25618" lon="0.20519">
        <ele>45.9</ele>
        <time>2022-02-23T12:08:31Z</time>
      </trkpt>
      <trkpt lat="47.25629" lon="0.20512">
        <ele>45.78</ele>
        <time>2022-02-23T12:08:40Z</time>
      </trkpt>
      <trkpt lat="47.25637" lon="0.20506">
        <ele>45.78</ele>
        <time>2022-02-23T12:08:47Z</time>
      </trkpt>
      <trkpt lat="47.25646" lon="0.205">
        <ele>46.15</ele>
        <time>2022-02-23T12:08:54Z</time>
      </trkpt>
      <trkpt lat="47.25655" lon="0.20496">
        <ele>46.09</ele>
        <time>2022-02-23T12:09:01Z</time>
      </trkpt>
      <trkpt lat="47.25665" lon="0.2049">
        <ele>46.19</ele>
        <time>2022-02-23T12:09:09Z</time>
      </trkpt>
      <trkpt lat="47.25673" lon="0.20482">
        <ele>46.43</ele>
        <time>2022-02-23T12:09:17Z</time>
      </trkpt>
      <trkpt lat="47.25681" lon="0.20476">
        <ele>46.27</ele>
        <time>2022-02-23T12:09:25Z</time>
      </trkpt>
      <trkpt lat="47.2569" lon="0.20472">
        <ele>46.49</ele>
        <time>2022-02-23T12:09:32Z</time>
      </trkpt>
      <trkpt lat="47.25699" lon="0.20471">
        <ele>46.46</ele>
        <time>2022-02-23T12:09:41Z</time>
      </trkpt>
      <trkpt lat="47.25707" lon="0.20467">
        <ele>46.22</ele>
        <time>2022-02-23T12:10:06Z</time>
      </trkpt>
      <trkpt lat="47.25717" lon="0.20463">
        <ele>46.22</ele>
        <time>2022-02-23T12:10:14Z</time>
      </trkpt>
      <trkpt lat="47.25725" lon="0.20459">
        <ele>46.39</ele>
        <time>2022-02-23T12:10:22Z</time>
      </trkpt>
      <trkpt lat="47.25735" lon="0.20455">
        <ele>46.45</ele>
        <time>2022-02-23T12:10:31Z</time>
      </trkpt>
      <trkpt lat="47.25744" lon="0.20452">
        <ele>46.51</ele>
        <time>2022-02-23T12:10:40Z</time>
      </trkpt>
      <trkpt lat="47.25753" lon="0.20449">
        <ele>46.49</ele>
        <time>2022-02-23T12:10:47Z</time>
      </trkpt>
      <trkpt lat="47.25763" lon="0.20445">
        <ele>46.64</ele>
        <time>2022-02-23T12:10:55Z</time>
      </trkpt>
      <trkpt lat="47.25774" lon="0.20443">
        <ele>46.7</ele>
        <time>2022-02-23T12:11:02Z</time>
      </trkpt>
      <trkpt lat="47.25784" lon="0.20442">
        <ele>46.57</ele>
        <time>2022-02-23T12:11:09Z</time>
      </trkpt>
      <trkpt lat="47.25794" lon="0.20441">
        <ele>46.74</ele>
        <time>2022-02-23T12:11:18Z</time>
      </trkpt>
      <trkpt lat="47.25804" lon="0.20441">
        <ele>46.66</ele>
        <time>2022-02-23T12:11:26Z</time>
      </trkpt>
      <trkpt lat="47.25814" lon="0.20441">
        <ele>46.79</ele>
        <time>2022-02-23T12:11:33Z</time>
      </trkpt>
      <trkpt lat="47.25823" lon="0.20441">
        <ele>46.61</ele>
        <time>2022-02-23T12:11:42Z</time>
      </trkpt>
      <trkpt lat="47.25834" lon="0.20442">
        <ele>46.75</ele>
        <time>2022-02-23T12:11:49Z</time>
      </trkpt>
      <trkpt lat="47.25845" lon="0.20443">
        <ele>46.79</ele>
        <time>2022-02-23T12:11:56Z</time>
      </trkpt>
      <trkpt lat="47.25855" lon="0.20446">
        <ele>46.59</ele>
        <time>2022-02-23T12:12:03Z</time>
      </trkpt>
      <trkpt lat="47.25865" lon="0.20446">
        <ele>46.69</ele>
        <time>2022-02-23T12:12:10Z</time>
      </trkpt>
      <trkpt lat="47.25876" lon="0.20447">
        <ele>46.63</ele>
        <time>2022-02-23T12:12:17Z</time>
      </trkpt>
      <trkpt lat="47.25885" lon="0.20447">
        <ele>46.7</ele>
        <time>2022-02-23T12:12:24Z</time>
      </trkpt>
      <trkpt lat="47.25894" lon="0.20447">
        <ele>46.76</ele>
        <time>2022-02-23T12:12:31Z</time>
      </trkpt>
      <trkpt lat="47.25904" lon="0.20446">
        <ele>47.13</ele>
        <time>2022-02-23T12:12:38Z</time>
      </trkpt>
      <trkpt lat="47.25914" lon="0.20445">
        <ele>47.23</ele>
        <time>2022-02-23T12:12:45Z</time>
      </trkpt>
      <trkpt lat="47.25924" lon="0.20442">
        <ele>47.02</ele>
        <time>2022-02-23T12:12:52Z</time>
      </trkpt>
      <trkpt lat="47.25932" lon="0.2044">
        <ele>47.15</ele>
        <time>2022-02-23T12:12:59Z</time>
      </trkpt>
      <trkpt lat="47.25941" lon="0.20437">
        <ele>47.08</ele>
        <time>2022-02-23T12:13:06Z</time>
      </trkpt>
      <trkpt lat="47.25949" lon="0.20435">
        <ele>47.16</ele>
        <time>2022-02-23T12:13:13Z</time>
      </trkpt>
      <trkpt lat="47.25958" lon="0.20431">
        <ele>47.27</ele>
        <time>2022-02-23T12:13:20Z</time>
      </trkpt>
      <trkpt lat="47.25967" lon="0.20428">
        <ele>47.15</ele>
        <time>2022-02-23T12:13:27Z</time>
      </trkpt>
      <trkpt lat="47.25976" lon="0.20424">
        <ele>47.47</ele>
        <time>2022-02-23T12:13:34Z</time>
      </trkpt>
      <trkpt lat="47.25984" lon="0.20421">
        <ele>47.67</ele>
        <time>2022-02-23T12:13:41Z</time>
      </trkpt>
      <trkpt lat="47.25994" lon="0.20417">
        <ele>47.98</ele>
        <time>2022-02-23T12:13:48Z</time>
      </trkpt>
      <trkpt lat="47.26003" lon="0.20414">
        <ele>48.6</ele>
        <time>2022-02-23T12:13:59Z</time>
      </trkpt>
      <trkpt lat="47.26012" lon="0.20412">
        <ele>48.71</ele>
        <time>2022-02-23T12:14:06Z</time>
      </trkpt>
      <trkpt lat="47.26021" lon="0.20408">
        <ele>49.37</ele>
        <time>2022-02-23T12:14:13Z</time>
      </trkpt>
      <trkpt lat="47.26031" lon="0.20405">
        <ele>50</ele>
        <time>2022-02-23T12:14:20Z</time>
      </trkpt>
      <trkpt lat="47.26041" lon="0.20401">
        <ele>50.46</ele>
        <time>2022-02-23T12:14:30Z</time>
      </trkpt>
      <trkpt lat="47.26051" lon="0.20398">
        <ele>51.15</ele>
        <time>2022-02-23T12:14:38Z</time>
      </trkpt>
      <trkpt lat="47.26062" lon="0.20394">
        <ele>51.75</ele>
        <time>2022-02-23T12:14:46Z</time>
      </trkpt>
      <trkpt lat="47.26071" lon="0.20391">
        <ele>52.21</ele>
        <time>2022-02-23T12:14:53Z</time>
      </trkpt>
      <trkpt lat="47.2608" lon="0.20387">
        <ele>52.66</ele>
        <time>2022-02-23T12:15:00Z</time>
      </trkpt>
      <trkpt lat="47.26089" lon="0.20383">
        <ele>53.02</ele>
        <time>2022-02-23T12:15:07Z</time>
      </trkpt>
      <trkpt lat="47.26099" lon="0.20379">
        <ele>53.45</ele>
        <time>2022-02-23T12:15:15Z</time>
      </trkpt>
      <trkpt lat="47.2611" lon="0.20375">
        <ele>53.82</ele>
        <time>2022-02-23T12:15:24Z</time>
      </trkpt>
      <trkpt lat="47.2612" lon="0.2037">
        <ele>53.82</ele>
        <time>2022-02-23T12:15:32Z</time>
      </trkpt>
      <trkpt lat="47.26129" lon="0.20364">
        <ele>54</ele>
        <time>2022-02-23T12:15:40Z</time>
      </trkpt>
      <trkpt lat="47.26139" lon="0.2036">
        <ele>53.95</ele>
        <time>2022-02-23T12:15:48Z</time>
      </trkpt>
      <trkpt lat="47.26149" lon="0.20357">
        <ele>53.65</ele>
        <time>2022-02-23T12:15:56Z</time>
      </trkpt>
      <trkpt lat="47.2616" lon="0.20353">
        <ele>53.39</ele>
        <time>2022-02-23T12:16:04Z</time>
      </trkpt>
      <trkpt lat="47.2617" lon="0.20349">
        <ele>52.98</ele>
        <time>2022-02-23T12:16:12Z</time>
      </trkpt>
      <trkpt lat="47.2618" lon="0.20345">
        <ele>52.47</ele>
        <time>2022-02-23T12:16:21Z</time>
      </trkpt>
      <trkpt lat="47.26191" lon="0.20339">
        <ele>52.05</ele>
        <time>2022-02-23T12:16:30Z</time>
      </trkpt>
      <trkpt lat="47.26201" lon="0.20336">
        <ele>51.42</ele>
        <time>2022-02-23T12:16:37Z</time>
      </trkpt>
      <trkpt lat="47.26212" lon="0.20333">
        <ele>50.98</ele>
        <time>2022-02-23T12:16:45Z</time>
      </trkpt>
      <trkpt lat="47.26223" lon="0.20332">
        <ele>50.46</ele>
        <time>2022-02-23T12:16:53Z</time>
      </trkpt>
      <trkpt lat="47.26234" lon="0.20329">
        <ele>49.68</ele>
        <time>2022-02-23T12:17:03Z</time>
      </trkpt>
      <trkpt lat="47.26244" lon="0.20328">
        <ele>48.9</ele>
        <time>2022-02-23T12:17:11Z</time>
      </trkpt>
      <trkpt lat="47.26257" lon="0.20329">
        <ele>48.62</ele>
        <time>2022-02-23T12:17:18Z</time>
      </trkpt>
      <trkpt lat="47.2627" lon="0.2033">
        <ele>48.43</ele>
        <time>2022-02-23T12:17:26Z</time>
      </trkpt>
      <trkpt lat="47.2628" lon="0.20336">
        <ele>47.74</ele>
        <time>2022-02-23T12:17:34Z</time>
      </trkpt>
      <trkpt lat="47.26291" lon="0.20342">
        <ele>47.08</ele>
        <time>2022-02-23T12:17:41Z</time>
      </trkpt>
      <trkpt lat="47.26299" lon="0.20349">
        <ele>46.76</ele>
        <time>2022-02-23T12:17:49Z</time>
      </trkpt>
      <trkpt lat="47.26308" lon="0.20356">
        <ele>46.63</ele>
        <time>2022-02-23T12:17:57Z</time>
      </trkpt>
      <trkpt lat="47.26316" lon="0.20364">
        <ele>46.63</ele>
        <time>2022-02-23T12:18:02Z</time>
      </trkpt>
      <trkpt lat="47.26323" lon="0.20371">
        <ele>46.83</ele>
        <time>2022-02-23T12:18:09Z</time>
      </trkpt>
      <trkpt lat="47.26332" lon="0.20378">
        <ele>47.22</ele>
        <time>2022-02-23T12:18:21Z</time>
      </trkpt>
      <trkpt lat="47.26341" lon="0.20386">
        <ele>47.17</ele>
        <time>2022-02-23T12:18:29Z</time>
      </trkpt>
      <trkpt lat="47.26349" lon="0.20393">
        <ele>47.04</ele>
        <time>2022-02-23T12:18:39Z</time>
      </trkpt>
      <trkpt lat="47.26357" lon="0.20401">
        <ele>47.26</ele>
        <time>2022-02-23T12:19:05Z</time>
      </trkpt>
      <trkpt lat="47.26357" lon="0.20416">
        <ele>46.72</ele>
        <time>2022-02-23T12:19:18Z</time>
      </trkpt>
      <trkpt lat="47.26358" lon="0.20431">
        <ele>46.27</ele>
        <time>2022-02-23T12:19:27Z</time>
      </trkpt>
      <trkpt lat="47.2636" lon="0.20447">
        <ele>46.43</ele>
        <time>2022-02-23T12:19:37Z</time>
      </trkpt>
      <trkpt lat="47.2636" lon="0.20465">
        <ele>46.7</ele>
        <time>2022-02-23T12:19:47Z</time>
      </trkpt>
      <trkpt lat="47.26362" lon="0.20482">
        <ele>46.77</ele>
        <time>2022-02-23T12:19:56Z</time>
      </trkpt>
      <trkpt lat="47.26365" lon="0.20495">
        <ele>46.73</ele>
        <time>2022-02-23T12:20:04Z</time>
      </trkpt>
      <trkpt lat="47.26367" lon="0.2051">
        <ele>46.72</ele>
        <time>2022-02-23T12:20:12Z</time>
      </trkpt>
      <trkpt lat="47.2637" lon="0.20525">
        <ele>46.98</ele>
        <time>2022-02-23T12:20:20Z</time>
      </trkpt>
      <trkpt lat="47.26371" lon="0.2054">
        <ele>46.78</ele>
        <time>2022-02-23T12:20:28Z</time>
      </trkpt>
      <trkpt lat="47.26375" lon="0.20554">
        <ele>46.96</ele>
        <time>2022-02-23T12:20:36Z</time>
      </trkpt>
      <trkpt lat="47.26378" lon="0.20568">
        <ele>46.77</ele>
        <time>2022-02-23T12:20:43Z</time>
      </trkpt>
      <trkpt lat="47.2638" lon="0.20582">
        <ele>46.64</ele>
        <time>2022-02-23T12:20:51Z</time>
      </trkpt>
      <trkpt lat="47.26384" lon="0.20596">
        <ele>46.7</ele>
        <time>2022-02-23T12:21:00Z</time>
      </trkpt>
      <trkpt lat="47.26386" lon="0.20611">
        <ele>46.83</ele>
        <time>2022-02-23T12:21:08Z</time>
      </trkpt>
      <trkpt lat="47.2639" lon="0.20628">
        <ele>46.63</ele>
        <time>2022-02-23T12:21:17Z</time>
      </trkpt>
      <trkpt lat="47.26392" lon="0.20644">
        <ele>46.53</ele>
        <time>2022-02-23T12:21:24Z</time>
      </trkpt>
      <trkpt lat="47.26396" lon="0.20658">
        <ele>46.67</ele>
        <time>2022-02-23T12:21:31Z</time>
      </trkpt>
      <trkpt lat="47.26399" lon="0.20674">
        <ele>46.79</ele>
        <time>2022-02-23T12:21:39Z</time>
      </trkpt>
      <trkpt lat="47.26407" lon="0.20685">
        <ele>47.01</ele>
        <time>2022-02-23T12:21:47Z</time>
      </trkpt>
      <trkpt lat="47.26415" lon="0.20694">
        <ele>47.05</ele>
        <time>2022-02-23T12:21:54Z</time>
      </trkpt>
      <trkpt lat="47.26424" lon="0.20703">
        <ele>46.81</ele>
        <time>2022-02-23T12:22:01Z</time>
      </trkpt>
      <trkpt lat="47.26432" lon="0.20712">
        <ele>46.8</ele>
        <time>2022-02-23T12:22:09Z</time>
      </trkpt>
      <trkpt lat="47.2644" lon="0.20723">
        <ele>47.06</ele>
        <time>2022-02-23T12:22:18Z</time>
      </trkpt>
      <trkpt lat="47.26449" lon="0.20732">
        <ele>47.34</ele>
        <time>2022-02-23T12:22:26Z</time>
      </trkpt>
      <trkpt lat="47.26457" lon="0.20744">
        <ele>47.1</ele>
        <time>2022-02-23T12:22:35Z</time>
      </trkpt>
      <trkpt lat="47.26467" lon="0.20757">
        <ele>47.11</ele>
        <time>2022-02-23T12:22:46Z</time>
      </trkpt>
      <trkpt lat="47.26475" lon="0.20769">
        <ele>47.08</ele>
        <time>2022-02-23T12:22:55Z</time>
      </trkpt>
      <trkpt lat="47.26483" lon="0.20779">
        <ele>46.98</ele>
        <time>2022-02-23T12:23:03Z</time>
      </trkpt>
      <trkpt lat="47.26489" lon="0.20793">
        <ele>47.07</ele>
        <time>2022-02-23T12:23:11Z</time>
      </trkpt>
      <trkpt lat="47.26496" lon="0.20808">
        <ele>46.83</ele>
        <time>2022-02-23T12:23:19Z</time>
      </trkpt>
      <trkpt lat="47.26503" lon="0.2082">
        <ele>46.84</ele>
        <time>2022-02-23T12:23:27Z</time>
      </trkpt>
      <trkpt lat="47.26512" lon="0.20831">
        <ele>46.8</ele>
        <time>2022-02-23T12:23:36Z</time>
      </trkpt>
      <trkpt lat="47.2652" lon="0.20842">
        <ele>47.01</ele>
        <time>2022-02-23T12:23:44Z</time>
      </trkpt>
      <trkpt lat="47.26527" lon="0.20855">
        <ele>46.98</ele>
        <time>2022-02-23T12:23:53Z</time>
      </trkpt>
      <trkpt lat="47.26535" lon="0.20868">
        <ele>47.03</ele>
        <time>2022-02-23T12:24:01Z</time>
      </trkpt>
      <trkpt lat="47.26543" lon="0.20881">
        <ele>47.11</ele>
        <time>2022-02-23T12:24:09Z</time>
      </trkpt>
      <trkpt lat="47.2655" lon="0.20894">
        <ele>47.19</ele>
        <time>2022-02-23T12:24:17Z</time>
      </trkpt>
      <trkpt lat="47.26555" lon="0.20908">
        <ele>47.21</ele>
        <time>2022-02-23T12:24:25Z</time>
      </trkpt>
      <trkpt lat="47.26561" lon="0.20921">
        <ele>47.26</ele>
        <time>2022-02-23T12:24:33Z</time>
      </trkpt>
      <trkpt lat="47.26568" lon="0.20935">
        <ele>47.15</ele>
        <time>2022-02-23T12:24:42Z</time>
      </trkpt>
      <trkpt lat="47.26575" lon="0.20947">
        <ele>47.21</ele>
        <time>2022-02-23T12:24:50Z</time>
      </trkpt>
      <trkpt lat="47.26582" lon="0.2096">
        <ele>47.25</ele>
        <time>2022-02-23T12:24:58Z</time>
      </trkpt>
      <trkpt lat="47.26589" lon="0.20974">
        <ele>47.32</ele>
        <time>2022-02-23T12:25:07Z</time>
      </trkpt>
      <trkpt lat="47.26595" lon="0.20989">
        <ele>47.31</ele>
        <time>2022-02-23T12:25:16Z</time>
      </trkpt>
      <trkpt lat="47.26598" lon="0.21004">
        <ele>47.26</ele>
        <time>2022-02-23T12:25:24Z</time>
      </trkpt>
      <trkpt lat="47.26602" lon="0.2102">
        <ele>47.33</ele>
        <time>2022-02-23T12:25:32Z</time>
      </trkpt>
      <trkpt lat="47.26607" lon="0.21036">
        <ele>47.35</ele>
        <time>2022-02-23T12:25:40Z</time>
      </trkpt>
      <trkpt lat="47.26615" lon="0.21049">
        <ele>47.4</ele>
        <time>2022-02-23T12:25:49Z</time>
      </trkpt>
      <trkpt lat="47.26622" lon="0.21062">
        <ele>47.5</ele>
        <time>2022-02-23T12:25:58Z</time>
      </trkpt>
      <trkpt lat="47.26629" lon="0.21075">
        <ele>47.72</ele>
        <time>2022-02-23T12:26:07Z</time>
      </trkpt>
      <trkpt lat="47.26639" lon="0.21085">
        <ele>47.81</ele>
        <time>2022-02-23T12:26:15Z</time>
      </trkpt>
      <trkpt lat="47.26647" lon="0.211">
        <ele>47.56</ele>
        <time>2022-02-23T12:26:25Z</time>
      </trkpt>
      <trkpt lat="47.26655" lon="0.21113">
        <ele>47.45</ele>
        <time>2022-02-23T12:26:34Z</time>
      </trkpt>
      <trkpt lat="47.26662" lon="0.21124">
        <ele>47.43</ele>
        <time>2022-02-23T12:26:42Z</time>
      </trkpt>
      <trkpt lat="47.26671" lon="0.21138">
        <ele>47.59</ele>
        <time>2022-02-23T12:26:51Z</time>
      </trkpt>
      <trkpt lat="47.26679" lon="0.2115">
        <ele>47.72</ele>
        <time>2022-02-23T12:26:59Z</time>
      </trkpt>
      <trkpt lat="47.26687" lon="0.21161">
        <ele>47.39</ele>
        <time>2022-02-23T12:27:08Z</time>
      </trkpt>
      <trkpt lat="47.26694" lon="0.21173">
        <ele>47.53</ele>
        <time>2022-02-23T12:27:17Z</time>
      </trkpt>
      <trkpt lat="47.26704" lon="0.21186">
        <ele>47.64</ele>
        <time>2022-02-23T12:27:26Z</time>
      </trkpt>
      <trkpt lat="47.26712" lon="0.21199">
        <ele>47.67</ele>
        <time>2022-02-23T12:27:35Z</time>
      </trkpt>
      <trkpt lat="47.2672" lon="0.21209">
        <ele>47.68</ele>
        <time>2022-02-23T12:27:46Z</time>
      </trkpt>
      <trkpt lat="47.26728" lon="0.21218">
        <ele>47.95</ele>
        <time>2022-02-23T12:27:53Z</time>
      </trkpt>
      <trkpt lat="47.26737" lon="0.21225">
        <ele>47.96</ele>
        <time>2022-02-23T12:28:00Z</time>
      </trkpt>
      <trkpt lat="47.26747" lon="0.2123">
        <ele>47.89</ele>
        <time>2022-02-23T12:28:07Z</time>
      </trkpt>
      <trkpt lat="47.26756" lon="0.21236">
        <ele>47.79</ele>
        <time>2022-02-23T12:28:14Z</time>
      </trkpt>
      <trkpt lat="47.26764" lon="0.21239">
        <ele>47.6</ele>
        <time>2022-02-23T12:28:21Z</time>
      </trkpt>
      <trkpt lat="47.26774" lon="0.21243">
        <ele>47.64</ele>
        <time>2022-02-23T12:28:31Z</time>
      </trkpt>
      <trkpt lat="47.26784" lon="0.21248">
        <ele>47.59</ele>
        <time>2022-02-23T12:28:40Z</time>
      </trkpt>
      <trkpt lat="47.26793" lon="0.2125">
        <ele>47.71</ele>
        <time>2022-02-23T12:28:48Z</time>
      </trkpt>
      <trkpt lat="47.26803" lon="0.21251">
        <ele>47.63</ele>
        <time>2022-02-23T12:28:56Z</time>
      </trkpt>
      <trkpt lat="47.26813" lon="0.21251">
        <ele>47.67</ele>
        <time>2022-02-23T12:29:05Z</time>
      </trkpt>
      <trkpt lat="47.26823" lon="0.21254">
        <ele>47.78</ele>
        <time>2022-02-23T12:29:16Z</time>
      </trkpt>
      <trkpt lat="47.26824" lon="0.21267">
        <ele>48.08</ele>
        <time>2022-02-23T12:29:27Z</time>
      </trkpt>
      <trkpt lat="47.26824" lon="0.21282">
        <ele>47.94</ele>
        <time>2022-02-23T12:29:35Z</time>
      </trkpt>
      <trkpt lat="47.26823" lon="0.21296">
        <ele>47.86</ele>
        <time>2022-02-23T12:29:42Z</time>
      </trkpt>
      <trkpt lat="47.26822" lon="0.21309">
        <ele>47.71</ele>
        <time>2022-02-23T12:29:49Z</time>
      </trkpt>
      <trkpt lat="47.26821" lon="0.21323">
        <ele>47.88</ele>
        <time>2022-02-23T12:29:56Z</time>
      </trkpt>
      <trkpt lat="47.26821" lon="0.21337">
        <ele>47.89</ele>
        <time>2022-02-23T12:30:03Z</time>
      </trkpt>
      <trkpt lat="47.2682" lon="0.2135">
        <ele>47.84</ele>
        <time>2022-02-23T12:30:10Z</time>
      </trkpt>
      <trkpt lat="47.26819" lon="0.21364">
        <ele>47.82</ele>
        <time>2022-02-23T12:30:17Z</time>
      </trkpt>
      <trkpt lat="47.26818" lon="0.21378">
        <ele>48.07</ele>
        <time>2022-02-23T12:30:24Z</time>
      </trkpt>
      <trkpt lat="47.26817" lon="0.21392">
        <ele>48.22</ele>
        <time>2022-02-23T12:30:31Z</time>
      </trkpt>
      <trkpt lat="47.26816" lon="0.21405">
        <ele>48.23</ele>
        <time>2022-02-23T12:30:38Z</time>
      </trkpt>
      <trkpt lat="47.26814" lon="0.21419">
        <ele>48.53</ele>
        <time>2022-02-23T12:30:45Z</time>
      </trkpt>
      <trkpt lat="47.26813" lon="0.21433">
        <ele>48.68</ele>
        <time>2022-02-23T12:30:52Z</time>
      </trkpt>
      <trkpt lat="47.26812" lon="0.21447">
        <ele>48.4</ele>
        <time>2022-02-23T12:30:59Z</time>
      </trkpt>
      <trkpt lat="47.26811" lon="0.2146">
        <ele>48.27</ele>
        <time>2022-02-23T12:31:06Z</time>
      </trkpt>
      <trkpt lat="47.26809" lon="0.21475">
        <ele>48.27</ele>
        <time>2022-02-23T12:31:13Z</time>
      </trkpt>
      <trkpt lat="47.26809" lon="0.21489">
        <ele>48.15</ele>
        <time>2022-02-23T12:31:20Z</time>
      </trkpt>
      <trkpt lat="47.26808" lon="0.21502">
        <ele>48.29</ele>
        <time>2022-02-23T12:31:27Z</time>
      </trkpt>
      <trkpt lat="47.26807" lon="0.21517">
        <ele>48.34</ele>
        <time>2022-02-23T12:31:34Z</time>
      </trkpt>
      <trkpt lat="47.26805" lon="0.21531">
        <ele>48.56</ele>
        <time>2022-02-23T12:31:41Z</time>
      </trkpt>
      <trkpt lat="47.26804" lon="0.21545">
        <ele>48.79</ele>
        <time>2022-02-23T12:31:48Z</time>
      </trkpt>
      <trkpt lat="47.26803" lon="0.21559">
        <ele>48.77</ele>
        <time>2022-02-23T12:31:55Z</time>
      </trkpt>
      <trkpt lat="47.26802" lon="0.21573">
        <ele>48.69</ele>
        <time>2022-02-23T12:32:02Z</time>
      </trkpt>
      <trkpt lat="47.26801" lon="0.21587">
        <ele>49.05</ele>
        <time>2022-02-23T12:32:09Z</time>
      </trkpt>
      <trkpt lat="47.26799" lon="0.21602">
        <ele>49</ele>
        <time>2022-02-23T12:32:17Z</time>
      </trkpt>
      <trkpt lat="47.26798" lon="0.21616">
        <ele>48.91</ele>
        <time>2022-02-23T12:32:24Z</time>
      </trkpt>
      <trkpt lat="47.26797" lon="0.2163">
        <ele>48.87</ele>
        <time>2022-02-23T12:32:31Z</time>
      </trkpt>
      <trkpt lat="47.26796" lon="0.21644">
        <ele>48.91</ele>
        <time>2022-02-23T12:32:38Z</time>
      </trkpt>
      <trkpt lat="47.26794" lon="0.21658">
        <ele>49.07</ele>
        <time>2022-02-23T12:32:45Z</time>
      </trkpt>
      <trkpt lat="47.26793" lon="0.21672">
        <ele>48.91</ele>
        <time>2022-02-23T12:32:52Z</time>
      </trkpt>
      <trkpt lat="47.26792" lon="0.21686">
        <ele>49</ele>
        <time>2022-02-23T12:32:59Z</time>
      </trkpt>
      <trkpt lat="47.26791" lon="0.217">
        <ele>49.03</ele>
        <time>2022-02-23T12:33:06Z</time>
      </trkpt>
      <trkpt lat="47.2679" lon="0.21714">
        <ele>49.03</ele>
        <time>2022-02-23T12:33:13Z</time>
      </trkpt>
      <trkpt lat="47.2679" lon="0.21728">
        <ele>49.23</ele>
        <time>2022-02-23T12:33:20Z</time>
      </trkpt>
      <trkpt lat="47.26788" lon="0.21742">
        <ele>49.22</ele>
        <time>2022-02-23T12:33:28Z</time>
      </trkpt>
      <trkpt lat="47.26787" lon="0.21756">
        <ele>49.22</ele>
        <time>2022-02-23T12:33:35Z</time>
      </trkpt>
      <trkpt lat="47.26785" lon="0.2177">
        <ele>49.29</ele>
        <time>2022-02-23T12:33:42Z</time>
      </trkpt>
      <trkpt lat="47.26784" lon="0.21783">
        <ele>49.21</ele>
        <time>2022-02-23T12:33:49Z</time>
      </trkpt>
      <trkpt lat="47.26783" lon="0.21797">
        <ele>49.12</ele>
        <time>2022-02-23T12:33:56Z</time>
      </trkpt>
      <trkpt lat="47.2678" lon="0.21812">
        <ele>49.17</ele>
        <time>2022-02-23T12:34:06Z</time>
      </trkpt>
      <trkpt lat="47.26778" lon="0.21826">
        <ele>49.3</ele>
        <time>2022-02-23T12:34:14Z</time>
      </trkpt>
      <trkpt lat="47.26778" lon="0.21841">
        <ele>49.2</ele>
        <time>2022-02-23T12:34:22Z</time>
      </trkpt>
      <trkpt lat="47.26775" lon="0.21858">
        <ele>49.01</ele>
        <time>2022-02-23T12:34:30Z</time>
      </trkpt>
      <trkpt lat="47.26773" lon="0.21876">
        <ele>49.02</ele>
        <time>2022-02-23T12:34:38Z</time>
      </trkpt>
      <trkpt lat="47.2677" lon="0.2189">
        <ele>49.28</ele>
        <time>2022-02-23T12:34:46Z</time>
      </trkpt>
      <trkpt lat="47.26773" lon="0.21905">
        <ele>49.44</ele>
        <time>2022-02-23T12:35:00Z</time>
      </trkpt>
      <trkpt lat="47.26772" lon="0.21919">
        <ele>49.34</ele>
        <time>2022-02-23T12:35:07Z</time>
      </trkpt>
      <trkpt lat="47.2677" lon="0.21933">
        <ele>49.25</ele>
        <time>2022-02-23T12:35:14Z</time>
      </trkpt>
      <trkpt lat="47.26769" lon="0.21949">
        <ele>49.31</ele>
        <time>2022-02-23T12:35:22Z</time>
      </trkpt>
      <trkpt lat="47.26769" lon="0.21954">
        <ele>49.86</ele>
        <time>2022-02-23T12:36:10Z</time>
      </trkpt>
      <trkpt lat="47.26766" lon="0.21914">
        <ele>21.88</ele>
        <time>2022-02-23T12:38:18Z</time>
      </trkpt>
      <trkpt lat="47.26768" lon="0.2191">
        <ele>21.88</ele>
        <time>2022-02-23T12:38:20Z</time>
      </trkpt>
      <trkpt lat="47.2677" lon="0.21899">
        <ele>21.96</ele>
        <time>2022-02-23T12:38:28Z</time>
      </trkpt>
    </trkseg>
  </trk>
</gpx>